Observation data for Tahoka on 08/14/2019      Previous  Date  Next       Current Mesonet Observations  Soil Data  Daily Summary Page  Observations in Plain Language
KTAS 140500Z 06009KT 27/18 A3011 RMK A01 T02680180  RH  059%=      5-min Rain = 0
KTAS 140501Z 07009KT 27/18 A3011 RMK A01 T02680180  RH  059%=      5-min Rain = 0
KTAS 140502Z 06009KT 27/18 A3011 RMK A01 T02680180  RH  059%=      5-min Rain = 0
KTAS 140503Z 06010KT 27/18 A3011 RMK A01 T02680180  RH  059%=      5-min Rain = 0
KTAS 140504Z 06009KT 27/18 A3011 RMK A01 T02680180  RH  059%=      5-min Rain = 0
KTAS 140505Z 07008KT 27/18 A3011 RMK A01 T02680181  RH  059%=      5-min Rain = 0
KTAS 140506Z 07010KT 27/18 A3011 RMK A01 T02670180  RH  059%=      5-min Rain = 0
KTAS 140507Z 06009KT 27/18 A3011 RMK A01 T02670180  RH  059%=      5-min Rain = 0
KTAS 140508Z 07009KT 27/18 A3011 RMK A01 T02670180  RH  059%=      5-min Rain = 0
KTAS 140509Z 07010KT 27/18 A3011 RMK A01 T02670180  RH  059%=      5-min Rain = 0
KTAS 140510Z 08009KT 27/18 A3011 RMK A01 T02670180  RH  059%=      5-min Rain = 0
KTAS 140522Z 08008KT 26/18 A3012 RMK A01 T02630181  RH  060%=      5-min Rain = 0
KTAS 140523Z 08009KT 26/18 A3011 RMK A01 T02630181  RH  060%=      5-min Rain = 0
KTAS 140524Z 08009KT 26/18 A3011 RMK A01 T02630181  RH  061%=      5-min Rain = 0
KTAS 140525Z 08007KT 26/18 A3011 RMK A01 T02630181  RH  061%=      5-min Rain = 0
KTAS 140526Z 07008KT 26/18 A3011 RMK A01 T02620181  RH  061%=      5-min Rain = 0
KTAS 140527Z 07008KT 26/18 A3011 RMK A01 T02620181  RH  061%=      5-min Rain = 0
KTAS 140528Z 07007KT 26/18 A3011 RMK A01 T02620181  RH  061%=      5-min Rain = 0
KTAS 140529Z 07008KT 26/18 A3011 RMK A01 T02610181  RH  061%=      5-min Rain = 0
KTAS 140530Z 08009KT 26/18 A3011 RMK A01 T02610181  RH  061%=      5-min Rain = 0
KTAS 140531Z 07007KT 26/18 A3011 RMK A01 T02610181  RH  061%=      5-min Rain = 0
KTAS 140532Z 07008KT 26/18 A3011 RMK A01 T02610181  RH  061%=      5-min Rain = 0
KTAS 140533Z 07009KT 26/18 A3011 RMK A01 T02610181  RH  061%=      5-min Rain = 0
KTAS 140534Z 07008KT 26/18 A3011 RMK A01 T02620181  RH  061%=      5-min Rain = 0
KTAS 140535Z 07009KT 26/18 A3011 RMK A01 T02620181  RH  061%=      5-min Rain = 0
KTAS 140536Z 07008KT 26/18 A3011 RMK A01 T02620181  RH  061%=      5-min Rain = 0
KTAS 140537Z 07008KT 26/18 A3011 RMK A01 T02620181  RH  061%=      5-min Rain = 0
KTAS 140538Z 07010KT 26/18 A3011 RMK A01 T02610181  RH  061%=      5-min Rain = 0
KTAS 140539Z 07009KT 26/18 A3011 RMK A01 T02610181  RH  061%=      5-min Rain = 0
KTAS 140540Z 07008KT 26/18 A3011 RMK A01 T02610181  RH  061%=      5-min Rain = 0
KTAS 140541Z 07008KT 26/18 A3011 RMK A01 T02600181  RH  062%=      5-min Rain = 0
KTAS 140542Z 07008KT 26/18 A3011 RMK A01 T02600181  RH  062%=      5-min Rain = 0
KTAS 140543Z 07008KT 26/18 A3011 RMK A01 T02600181  RH  062%=      5-min Rain = 0
KTAS 140544Z 08009KT 26/18 A3012 RMK A01 T02600181  RH  062%=      5-min Rain = 0
KTAS 140545Z 08008KT 26/18 A3012 RMK A01 T02600181  RH  062%=      5-min Rain = 0
KTAS 140546Z 07008KT 26/18 A3012 RMK A01 T02600181  RH  062%=      5-min Rain = 0
KTAS 140547Z 08008KT 26/18 A3012 RMK A01 T02600181  RH  062%=      5-min Rain = 0
KTAS 140548Z 07008KT 26/18 A3012 RMK A01 T02600181  RH  062%=      5-min Rain = 0
KTAS 140549Z 07009KT 26/18 A3012 RMK A01 T02590181  RH  062%=      5-min Rain = 0
KTAS 140550Z 07008KT 26/18 A3012 RMK A01 T02590181  RH  062%=      5-min Rain = 0
KTAS 140551Z 06007KT 26/18 A3012 RMK A01 T02590181  RH  062%=      5-min Rain = 0
KTAS 140552Z 06008KT 26/18 A3011 RMK A01 T02590181  RH  062%=      5-min Rain = 0
KTAS 140553Z 06008KT 26/18 A3011 RMK A01 T02590181  RH  062%=      5-min Rain = 0
KTAS 140554Z 07009KT 26/18 A3011 RMK A01 T02590181  RH  062%=      5-min Rain = 0
KTAS 140555Z 07009KT 26/18 A3011 RMK A01 T02590181  RH  062%=      5-min Rain = 0
KTAS 140556Z 07008KT 26/18 A3011 RMK A01 T02590181  RH  062%=      5-min Rain = 0
KTAS 140557Z 07009KT 26/18 A3011 RMK A01 T02590181  RH  062%=      5-min Rain = 0
KTAS 140558Z 07009KT 26/18 A3011 RMK A01 T02580181  RH  062%=      5-min Rain = 0
KTAS 140559Z 07008KT 26/18 A3011 RMK A01 T02580181  RH  062%=      5-min Rain = 0
KTAS 140600Z 07008KT 26/18 A3011 RMK A01 T02580181  RH  062%=      5-min Rain = 0
KTAS 140601Z 08008KT 26/18 A3011 RMK A01 T02580181  RH  062%=      5-min Rain = 0
KTAS 140602Z 08008KT 26/18 A3011 RMK A01 T02580181  RH  063%=      5-min Rain = 0
KTAS 140603Z 08008KT 26/18 A3011 RMK A01 T02580181  RH  063%=      5-min Rain = 0
KTAS 140604Z 08007KT 26/18 A3011 RMK A01 T02570181  RH  063%=      5-min Rain = 0
KTAS 140605Z 08008KT 26/18 A3011 RMK A01 T02570181  RH  063%=      5-min Rain = 0
KTAS 140606Z 07009KT 26/18 A3011 RMK A01 T02570181  RH  063%=      5-min Rain = 0
KTAS 140607Z 07007KT 26/18 A3011 RMK A01 T02570181  RH  063%=      5-min Rain = 0
KTAS 140608Z 07007KT 26/18 A3011 RMK A01 T02560181  RH  063%=      5-min Rain = 0
KTAS 140609Z 07007KT 26/18 A3011 RMK A01 T02560181  RH  063%=      5-min Rain = 0
KTAS 140610Z 07007KT 26/18 A3011 RMK A01 T02550181  RH  063%=      5-min Rain = 0
KTAS 140611Z 07007KT 26/18 A3012 RMK A01 T02550181  RH  064%=      5-min Rain = 0
KTAS 140612Z 07007KT 26/18 A3012 RMK A01 T02550181  RH  064%=      5-min Rain = 0
KTAS 140613Z 07007KT 25/18 A3012 RMK A01 T02540181  RH  064%=      5-min Rain = 0
KTAS 140614Z 07007KT 25/18 A3012 RMK A01 T02540181  RH  064%=      5-min Rain = 0
KTAS 140615Z 08006KT 25/18 A3012 RMK A01 T02540181  RH  064%=      5-min Rain = 0
KTAS 140616Z 08007KT 25/18 A3012 RMK A01 T02530181  RH  064%=      5-min Rain = 0
KTAS 140617Z 08007KT 25/18 A3012 RMK A01 T02530181  RH  064%=      5-min Rain = 0
KTAS 140618Z 08007KT 25/18 A3012 RMK A01 T02530181  RH  065%=      5-min Rain = 0
KTAS 140619Z 08006KT 25/18 A3012 RMK A01 T02520181  RH  065%=      5-min Rain = 0
KTAS 140620Z 08007KT 25/18 A3012 RMK A01 T02520181  RH  065%=      5-min Rain = 0
KTAS 140621Z 08007KT 25/18 A3011 RMK A01 T02520181  RH  065%=      5-min Rain = 0
KTAS 140622Z 08006KT 25/18 A3011 RMK A01 T02520181  RH  065%=      5-min Rain = 0
KTAS 140623Z 07007KT 25/18 A3011 RMK A01 T02510181  RH  065%=      5-min Rain = 0
KTAS 140624Z 08007KT 25/18 A3011 RMK A01 T02510181  RH  065%=      5-min Rain = 0
KTAS 140625Z 08007KT 25/18 A3011 RMK A01 T02510181  RH  065%=      5-min Rain = 0
KTAS 140626Z 08007KT 25/18 A3011 RMK A01 T02500181  RH  065%=      5-min Rain = 0
KTAS 140627Z 09007KT 25/18 A3011 RMK A01 T02500181  RH  066%=      5-min Rain = 0
KTAS 140628Z 08007KT 25/18 A3011 RMK A01 T02500181  RH  066%=      5-min Rain = 0
KTAS 140629Z 08008KT 25/18 A3011 RMK A01 T02500181  RH  066%=      5-min Rain = 0
KTAS 140630Z 08008KT 25/18 A3011 RMK A01 T02500181  RH  066%=      5-min Rain = 0
KTAS 140631Z 08007KT 25/18 A3011 RMK A01 T02500181  RH  066%=      5-min Rain = 0
KTAS 140632Z 08007KT 25/18 A3011 RMK A01 T02490181  RH  066%=      5-min Rain = 0
KTAS 140633Z 08008KT 25/18 A3011 RMK A01 T02490181  RH  066%=      5-min Rain = 0
KTAS 140634Z 08008KT 25/18 A3011 RMK A01 T02490181  RH  066%=      5-min Rain = 0
KTAS 140635Z 09007KT 25/18 A3011 RMK A01 T02490181  RH  066%=      5-min Rain = 0
KTAS 140636Z 09007KT 25/18 A3011 RMK A01 T02480181  RH  066%=      5-min Rain = 0
KTAS 140637Z 09007KT 25/18 A3011 RMK A01 T02480181  RH  066%=      5-min Rain = 0
KTAS 140638Z 08007KT 25/18 A3011 RMK A01 T02480181  RH  066%=      5-min Rain = 0
KTAS 140639Z 09008KT 25/18 A3011 RMK A01 T02480181  RH  066%=      5-min Rain = 0
KTAS 140640Z 08009KT 25/18 A3011 RMK A01 T02480181  RH  066%=      5-min Rain = 0
KTAS 140641Z 08009KT 25/18 A3011 RMK A01 T02480181  RH  066%=      5-min Rain = 0
KTAS 140642Z 08010KT 25/18 A3011 RMK A01 T02490182  RH  066%=      5-min Rain = 0
KTAS 140643Z 07009KT 25/18 A3011 RMK A01 T02500182  RH  066%=      5-min Rain = 0
KTAS 140644Z 07009KT 25/18 A3011 RMK A01 T02500182  RH  066%=      5-min Rain = 0
KTAS 140645Z 07008KT 25/18 A3011 RMK A01 T02490182  RH  066%=      5-min Rain = 0
KTAS 140646Z 07008KT 25/18 A3011 RMK A01 T02490182  RH  066%=      5-min Rain = 0
KTAS 140647Z 08008KT 25/18 A3011 RMK A01 T02480182  RH  067%=      5-min Rain = 0
KTAS 140648Z 07007KT 25/18 A3011 RMK A01 T02480182  RH  067%=      5-min Rain = 0
KTAS 140649Z 08008KT 25/18 A3011 RMK A01 T02480182  RH  067%=      5-min Rain = 0
KTAS 140650Z 07008KT 25/18 A3011 RMK A01 T02470182  RH  067%=      5-min Rain = 0
KTAS 140651Z 07007KT 25/18 A3012 RMK A01 T02470182  RH  067%=      5-min Rain = 0
KTAS 140652Z 07008KT 25/18 A3012 RMK A01 T02470182  RH  067%=      5-min Rain = 0
KTAS 140653Z 07008KT 25/18 A3012 RMK A01 T02470182  RH  067%=      5-min Rain = 0
KTAS 140654Z 07008KT 25/18 A3012 RMK A01 T02470182  RH  067%=      5-min Rain = 0
KTAS 140655Z 07007KT 25/18 A3012 RMK A01 T02470182  RH  067%=      5-min Rain = 0
KTAS 140656Z 07007KT 25/18 A3012 RMK A01 T02470181  RH  067%=      5-min Rain = 0
KTAS 140657Z 07007KT 25/18 A3012 RMK A01 T02470182  RH  067%=      5-min Rain = 0
KTAS 140658Z 07008KT 25/18 A3012 RMK A01 T02470182  RH  067%=      5-min Rain = 0
KTAS 140659Z 07007KT 25/18 A3012 RMK A01 T02470182  RH  067%=      5-min Rain = 0
KTAS 140700Z 07007KT 25/18 A3012 RMK A01 T02460181  RH  067%=      5-min Rain = 0
KTAS 140701Z 07008KT 25/18 A3012 RMK A01 T02460182  RH  067%=      5-min Rain = 0
KTAS 140702Z 07007KT 25/18 A3012 RMK A01 T02460182  RH  067%=      5-min Rain = 0
KTAS 140703Z 07009KT 25/18 A3012 RMK A01 T02460182  RH  068%=      5-min Rain = 0
KTAS 140704Z 07007KT 25/18 A3012 RMK A01 T02460182  RH  067%=      5-min Rain = 0
KTAS 140705Z 07007KT 25/18 A3012 RMK A01 T02460182  RH  067%=      5-min Rain = 0
KTAS 140706Z 08007KT 25/18 A3012 RMK A01 T02460182  RH  067%=      5-min Rain = 0
KTAS 140707Z 07007KT 25/18 A3012 RMK A01 T02460182  RH  068%=      5-min Rain = 0
KTAS 140708Z 07008KT 25/18 A3013 RMK A01 T02450182  RH  068%=      5-min Rain = 0
KTAS 140709Z 07007KT 25/18 A3013 RMK A01 T02450182  RH  068%=      5-min Rain = 0
KTAS 140710Z 07007KT 25/18 A3013 RMK A01 T02450182  RH  068%=      5-min Rain = 0
KTAS 140711Z 07008KT 25/18 A3012 RMK A01 T02450182  RH  068%=      5-min Rain = 0
KTAS 140712Z 07008KT 25/18 A3012 RMK A01 T02450182  RH  068%=      5-min Rain = 0
KTAS 140713Z 07008KT 25/18 A3012 RMK A01 T02450182  RH  068%=      5-min Rain = 0
KTAS 140714Z 08007KT 25/18 A3012 RMK A01 T02450182  RH  068%=      5-min Rain = 0
KTAS 140715Z 07007KT 25/18 A3012 RMK A01 T02450182  RH  068%=      5-min Rain = 0
KTAS 140716Z 07008KT 25/18 A3012 RMK A01 T02450182  RH  068%=      5-min Rain = 0
KTAS 140717Z 07008KT 25/18 A3012 RMK A01 T02450183  RH  068%=      5-min Rain = 0
KTAS 140718Z 07009KT 24/18 A3012 RMK A01 T02440182  RH  068%=      5-min Rain = 0
KTAS 140719Z 07008KT 25/18 A3012 RMK A01 T02450183  RH  068%=      5-min Rain = 0
KTAS 140720Z 07008KT 24/18 A3012 RMK A01 T02440183  RH  068%=      5-min Rain = 0
KTAS 140721Z 07009KT 24/18 A3012 RMK A01 T02440183  RH  069%=      5-min Rain = 0
KTAS 140722Z 07009KT 25/18 A3012 RMK A01 T02450183  RH  068%=      5-min Rain = 0
KTAS 140723Z 07009KT 25/18 A3012 RMK A01 T02450183  RH  068%=      5-min Rain = 0
KTAS 140724Z 07008KT 25/18 A3012 RMK A01 T02450183  RH  068%=      5-min Rain = 0
KTAS 140725Z 06008KT 25/18 A3012 RMK A01 T02450183  RH  068%=      5-min Rain = 0
KTAS 140726Z 06007KT 25/18 A3012 RMK A01 T02450183  RH  069%=      5-min Rain = 0
KTAS 140727Z 06009KT 24/18 A3012 RMK A01 T02440183  RH  069%=      5-min Rain = 0
KTAS 140728Z 06010KT 24/18 A3012 RMK A01 T02440183  RH  069%=      5-min Rain = 0
KTAS 140729Z 06010KT 25/18 A3012 RMK A01 T02450183  RH  069%=      5-min Rain = 0
KTAS 140730Z 06011KT 25/18 A3012 RMK A01 T02450183  RH  068%=      5-min Rain = 0
KTAS 140731Z 06010KT 25/18 A3013 RMK A01 T02450183  RH  068%=      5-min Rain = 0
KTAS 140732Z 06009KT 25/18 A3013 RMK A01 T02450184  RH  068%=      5-min Rain = 0
KTAS 140733Z 06009KT 25/18 A3013 RMK A01 T02450184  RH  069%=      5-min Rain = 0
KTAS 140734Z 06010KT 25/18 A3012 RMK A01 T02450184  RH  069%=      5-min Rain = 0
KTAS 140735Z 06009KT 25/18 A3012 RMK A01 T02450184  RH  068%=      5-min Rain = 0
KTAS 140736Z 06009KT 25/18 A3012 RMK A01 T02450184  RH  069%=      5-min Rain = 0
KTAS 140737Z 06009KT 25/18 A3012 RMK A01 T02450184  RH  069%=      5-min Rain = 0
KTAS 140738Z 06009KT 25/18 A3012 RMK A01 T02450184  RH  069%=      5-min Rain = 0
KTAS 140739Z 06010KT 25/18 A3012 RMK A01 T02450184  RH  069%=      5-min Rain = 0
KTAS 140740Z 06009KT 25/18 A3012 RMK A01 T02450184  RH  069%=      5-min Rain = 0
KTAS 140741Z 06009KT 25/18 A3012 RMK A01 T02450184  RH  069%=      5-min Rain = 0
KTAS 140742Z 06009KT 25/18 A3012 RMK A01 T02450184  RH  069%=      5-min Rain = 0
KTAS 140743Z 07010KT 25/18 A3012 RMK A01 T02450184  RH  069%=      5-min Rain = 0
KTAS 140744Z 06010KT 25/18 A3013 RMK A01 T02450184  RH  069%=      5-min Rain = 0
KTAS 140745Z 06009KT 24/18 A3013 RMK A01 T02440184  RH  069%=      5-min Rain = 0
KTAS 140746Z 06009KT 24/18 A3013 RMK A01 T02440184  RH  069%=      5-min Rain = 0
KTAS 140747Z 06011KT 24/18 A3013 RMK A01 T02440184  RH  069%=      5-min Rain = 0
KTAS 140748Z 06010KT 25/18 A3013 RMK A01 T02450184  RH  069%=      5-min Rain = 0
KTAS 140749Z 06010KT 25/18 A3013 RMK A01 T02450184  RH  069%=      5-min Rain = 0
KTAS 140750Z 06009KT 25/18 A3013 RMK A01 T02450184  RH  069%=      5-min Rain = 0
KTAS 140751Z 06009KT 25/19 A3013 RMK A01 T02450185  RH  069%=      5-min Rain = 0
KTAS 140752Z 06009KT 25/19 A3013 RMK A01 T02450185  RH  069%=      5-min Rain = 0
KTAS 140753Z 06010KT 24/19 A3013 RMK A01 T02440185  RH  069%=      5-min Rain = 0
KTAS 140754Z 06010KT 24/19 A3013 RMK A01 T02440185  RH  069%=      5-min Rain = 0
KTAS 140755Z 06008KT 24/19 A3012 RMK A01 T02440185  RH  069%=      5-min Rain = 0
KTAS 140756Z 06010KT 24/18 A3012 RMK A01 T02440184  RH  070%=      5-min Rain = 0
KTAS 140757Z 07008KT 24/18 A3012 RMK A01 T02440184  RH  069%=      5-min Rain = 0
KTAS 140758Z 06008KT 24/18 A3012 RMK A01 T02440184  RH  070%=      5-min Rain = 0
KTAS 140759Z 06010KT 24/18 A3012 RMK A01 T02430184  RH  070%=      5-min Rain = 0
KTAS 140800Z 06009KT 24/18 A3012 RMK A01 T02430184  RH  070%=      5-min Rain = 0
KTAS 140801Z 07010KT 24/18 A3012 RMK A01 T02430184  RH  070%=      5-min Rain = 0
KTAS 140802Z 07008KT 24/18 A3012 RMK A01 T02430184  RH  070%=      5-min Rain = 0
KTAS 140803Z 07008KT 24/18 A3012 RMK A01 T02430184  RH  070%=      5-min Rain = 0
KTAS 140804Z 07009KT 24/18 A3012 RMK A01 T02420184  RH  070%=      5-min Rain = 0
KTAS 140805Z 07009KT 24/18 A3012 RMK A01 T02420184  RH  070%=      5-min Rain = 0
KTAS 140806Z 07009KT 24/18 A3012 RMK A01 T02420184  RH  070%=      5-min Rain = 0
KTAS 140807Z 07008KT 24/18 A3012 RMK A01 T02420184  RH  070%=      5-min Rain = 0
KTAS 140808Z 07008KT 24/18 A3012 RMK A01 T02420184  RH  070%=      5-min Rain = 0
KTAS 140809Z 07009KT 24/18 A3012 RMK A01 T02410184  RH  070%=      5-min Rain = 0
KTAS 140810Z 07011KT 24/18 A3012 RMK A01 T02420184  RH  070%=      5-min Rain = 0
KTAS 140811Z 08009KT 24/18 A3012 RMK A01 T02420184  RH  070%=      5-min Rain = 0
KTAS 140812Z 07008KT 24/18 A3012 RMK A01 T02420184  RH  070%=      5-min Rain = 0
KTAS 140813Z 07010KT 24/18 A3012 RMK A01 T02420184  RH  070%=      5-min Rain = 0
KTAS 140814Z 07009KT 24/18 A3012 RMK A01 T02420184  RH  070%=      5-min Rain = 0
KTAS 140815Z 07009KT 24/18 A3012 RMK A01 T02420184  RH  070%=      5-min Rain = 0
KTAS 140816Z 06009KT 24/18 A3012 RMK A01 T02420184  RH  070%=      5-min Rain = 0
KTAS 140817Z 06009KT 24/18 A3012 RMK A01 T02410184  RH  070%=      5-min Rain = 0
KTAS 140818Z 06009KT 24/19 A3012 RMK A01 T02420185  RH  070%=      5-min Rain = 0
KTAS 140819Z 06010KT 24/19 A3012 RMK A01 T02420185  RH  070%=      5-min Rain = 0
KTAS 140820Z 06010KT 24/19 A3012 RMK A01 T02420185  RH  070%=      5-min Rain = 0
KTAS 140821Z 06010KT 24/18 A3012 RMK A01 T02420184  RH  070%=      5-min Rain = 0
KTAS 140822Z 06010KT 24/19 A3012 RMK A01 T02430185  RH  070%=      5-min Rain = 0
KTAS 140823Z 06010KT 24/19 A3012 RMK A01 T02430185  RH  070%=      5-min Rain = 0
KTAS 140824Z 06010KT 24/19 A3012 RMK A01 T02430185  RH  070%=      5-min Rain = 0
KTAS 140825Z 06009KT 24/19 A3012 RMK A01 T02430185  RH  070%=      5-min Rain = 0
KTAS 140826Z 06008KT 24/19 A3012 RMK A01 T02430185  RH  070%=      5-min Rain = 0
KTAS 140827Z 06010KT 24/19 A3012 RMK A01 T02430185  RH  070%=      5-min Rain = 0
KTAS 140828Z 06010KT 24/19 A3012 RMK A01 T02430185  RH  070%=      5-min Rain = 0
KTAS 140829Z 06009KT 24/19 A3012 RMK A01 T02430185  RH  070%=      5-min Rain = 0
KTAS 140830Z 06010KT 24/19 A3012 RMK A01 T02430185  RH  070%=      5-min Rain = 0
KTAS 140831Z 06010KT 24/19 A3012 RMK A01 T02430185  RH  070%=      5-min Rain = 0
KTAS 140832Z 05010KT 24/18 A3012 RMK A01 T02430184  RH  070%=      5-min Rain = 0
KTAS 140833Z 06009KT 24/18 A3012 RMK A01 T02430184  RH  070%=      5-min Rain = 0
KTAS 140834Z 06011KT 24/19 A3012 RMK A01 T02430185  RH  070%=      5-min Rain = 0
KTAS 140835Z 06010KT 24/19 A3012 RMK A01 T02430185  RH  070%=      5-min Rain = 0
KTAS 140836Z 05009KT 24/18 A3012 RMK A01 T02430184  RH  070%=      5-min Rain = 0
KTAS 140837Z 06009KT 24/18 A3012 RMK A01 T02420184  RH  070%=      5-min Rain = 0
KTAS 140838Z 05009KT 24/18 A3012 RMK A01 T02420184  RH  070%=      5-min Rain = 0
KTAS 140839Z 05009G15KT 24/18 A3012 RMK A01 T02420184  RH  070%=      5-min Rain = 0
KTAS 140840Z 06008KT 24/18 A3012 RMK A01 T02420184  RH  070%=      5-min Rain = 0
KTAS 140841Z 05011KT 24/18 A3012 RMK A01 T02420184  RH  070%=      5-min Rain = 0
KTAS 140842Z 05010KT 24/18 A3012 RMK A01 T02420184  RH  070%=      5-min Rain = 0
KTAS 140843Z 05008KT 24/18 A3012 RMK A01 T02420184  RH  070%=      5-min Rain = 0
KTAS 140844Z 05010KT 24/18 A3012 RMK A01 T02410184  RH  070%=      5-min Rain = 0
KTAS 140845Z 05009KT 24/18 A3012 RMK A01 T02410184  RH  070%=      5-min Rain = 0
KTAS 140846Z 05011KT 24/18 A3012 RMK A01 T02410184  RH  070%=      5-min Rain = 0
KTAS 140847Z 05011KT 24/18 A3012 RMK A01 T02410184  RH  070%=      5-min Rain = 0
KTAS 140848Z 05010KT 24/18 A3012 RMK A01 T02410184  RH  070%=      5-min Rain = 0
KTAS 140849Z 05009KT 24/18 A3012 RMK A01 T02410184  RH  070%=      5-min Rain = 0
KTAS 140850Z 05010KT 24/18 A3012 RMK A01 T02400183  RH  071%=      5-min Rain = 0
KTAS 140851Z 05009KT 24/18 A3012 RMK A01 T02400183  RH  071%=      5-min Rain = 0
KTAS 140852Z 05011KT 24/18 A3012 RMK A01 T02400183  RH  071%=      5-min Rain = 0
KTAS 140853Z 06010KT 24/18 A3012 RMK A01 T02400183  RH  070%=      5-min Rain = 0
KTAS 140854Z 06009KT 24/18 A3012 RMK A01 T02400183  RH  070%=      5-min Rain = 0
KTAS 140855Z 06009KT 24/18 A3012 RMK A01 T02390183  RH  071%=      5-min Rain = 0
KTAS 140856Z 06008KT 24/18 A3012 RMK A01 T02390183  RH  071%=      5-min Rain = 0
KTAS 140857Z 06008KT 24/18 A3012 RMK A01 T02380183  RH  071%=      5-min Rain = 0
KTAS 140858Z 06009KT 24/18 A3012 RMK A01 T02380183  RH  071%=      5-min Rain = 0
KTAS 140859Z 06008KT 24/18 A3012 RMK A01 T02380183  RH  071%=      5-min Rain = 0
KTAS 140900Z 06009KT 24/18 A3012 RMK A01 T02370182  RH  071%=      5-min Rain = 0
KTAS 140901Z 06011KT 24/18 A3012 RMK A01 T02380183  RH  071%=      5-min Rain = 0
KTAS 140902Z 06011KT 24/18 A3012 RMK A01 T02380183  RH  071%=      5-min Rain = 0
KTAS 140903Z 07009KT 24/18 A3011 RMK A01 T02380183  RH  071%=      5-min Rain = 0
KTAS 140904Z 06009KT 24/18 A3011 RMK A01 T02380182  RH  071%=      5-min Rain = 0
KTAS 140905Z 07010KT 24/18 A3011 RMK A01 T02370182  RH  071%=      5-min Rain = 0
KTAS 140906Z 06010KT 24/18 A3011 RMK A01 T02370183  RH  071%=      5-min Rain = 0
KTAS 140907Z 06009KT 24/18 A3011 RMK A01 T02370183  RH  071%=      5-min Rain = 0
KTAS 140908Z 06009KT 24/18 A3011 RMK A01 T02370183  RH  071%=      5-min Rain = 0
KTAS 140909Z 06010KT 24/18 A3011 RMK A01 T02370183  RH  072%=      5-min Rain = 0
KTAS 140910Z 06009KT 24/18 A3011 RMK A01 T02370183  RH  072%=      5-min Rain = 0
KTAS 140911Z 06009KT 24/18 A3011 RMK A01 T02370183  RH  072%=      5-min Rain = 0
KTAS 140912Z 06009KT 24/18 A3011 RMK A01 T02370183  RH  072%=      5-min Rain = 0
KTAS 140913Z 06008KT 24/18 A3011 RMK A01 T02370183  RH  072%=      5-min Rain = 0
KTAS 140914Z 06009KT 24/18 A3011 RMK A01 T02360182  RH  072%=      5-min Rain = 0
KTAS 140915Z 06009KT 24/18 A3011 RMK A01 T02360182  RH  072%=      5-min Rain = 0
KTAS 140916Z 06007KT 24/18 A3011 RMK A01 T02360182  RH  072%=      5-min Rain = 0
KTAS 140917Z 05008KT 24/18 A3011 RMK A01 T02360182  RH  072%=      5-min Rain = 0
KTAS 140918Z 05007KT 24/18 A3011 RMK A01 T02350182  RH  072%=      5-min Rain = 0
KTAS 140919Z 06007KT 24/18 A3011 RMK A01 T02350182  RH  072%=      5-min Rain = 0
KTAS 140920Z 05009KT 23/18 A3011 RMK A01 T02340182  RH  073%=      5-min Rain = 0
KTAS 140921Z 05007KT 23/18 A3011 RMK A01 T02340183  RH  073%=      5-min Rain = 0
KTAS 140922Z 05008KT 23/18 A3011 RMK A01 T02340182  RH  073%=      5-min Rain = 0
KTAS 140923Z 05008KT 23/18 A3011 RMK A01 T02330182  RH  073%=      5-min Rain = 0
KTAS 140924Z 05008KT 23/18 A3011 RMK A01 T02330182  RH  073%=      5-min Rain = 0
KTAS 140925Z 05009KT 23/18 A3011 RMK A01 T02330183  RH  073%=      5-min Rain = 0
KTAS 140926Z 05009KT 23/18 A3011 RMK A01 T02330183  RH  073%=      5-min Rain = 0
KTAS 140927Z 05008KT 23/18 A3011 RMK A01 T02330183  RH  073%=      5-min Rain = 0
KTAS 140928Z 05008KT 23/18 A3011 RMK A01 T02330183  RH  073%=      5-min Rain = 0
KTAS 140929Z 05008KT 23/18 A3011 RMK A01 T02330182  RH  073%=      5-min Rain = 0
KTAS 140930Z 05008KT 23/18 A3011 RMK A01 T02330183  RH  073%=      5-min Rain = 0
KTAS 140931Z 05010KT 23/18 A3011 RMK A01 T02330182  RH  073%=      5-min Rain = 0
KTAS 140932Z 05008KT 23/18 A3011 RMK A01 T02330183  RH  073%=      5-min Rain = 0
KTAS 140933Z 05008KT 23/18 A3011 RMK A01 T02320182  RH  073%=      5-min Rain = 0
KTAS 140934Z 04007KT 23/18 A3011 RMK A01 T02320182  RH  074%=      5-min Rain = 0
KTAS 140935Z 05007KT 23/18 A3011 RMK A01 T02320182  RH  074%=      5-min Rain = 0
KTAS 140936Z 05007KT 23/18 A3011 RMK A01 T02320183  RH  074%=      5-min Rain = 0
KTAS 140937Z 05008KT 23/18 A3011 RMK A01 T02310183  RH  074%=      5-min Rain = 0
KTAS 140938Z 05007KT 23/18 A3011 RMK A01 T02310183  RH  074%=      5-min Rain = 0
KTAS 140939Z 05006KT 23/18 A3011 RMK A01 T02310182  RH  074%=      5-min Rain = 0
KTAS 140940Z 05007KT 23/18 A3011 RMK A01 T02300182  RH  074%=      5-min Rain = 0
KTAS 140941Z 05007KT 23/18 A3011 RMK A01 T02300182  RH  074%=      5-min Rain = 0
KTAS 140942Z 05008KT 23/18 A3011 RMK A01 T02300182  RH  074%=      5-min Rain = 0
KTAS 140943Z 05007KT 23/18 A3011 RMK A01 T02300182  RH  074%=      5-min Rain = 0
KTAS 140944Z 05008KT 23/18 A3011 RMK A01 T02300182  RH  075%=      5-min Rain = 0
KTAS 140945Z 05009KT 23/18 A3011 RMK A01 T02300182  RH  075%=      5-min Rain = 0
KTAS 140946Z 05009KT 23/18 A3011 RMK A01 T02300182  RH  074%=      5-min Rain = 0
KTAS 140947Z 05008KT 23/18 A3011 RMK A01 T02300182  RH  074%=      5-min Rain = 0
KTAS 140948Z 05009KT 23/18 A3011 RMK A01 T02300182  RH  074%=      5-min Rain = 0
KTAS 140949Z 05008KT 23/18 A3011 RMK A01 T02300182  RH  074%=      5-min Rain = 0
KTAS 140950Z 05008KT 23/18 A3011 RMK A01 T02300182  RH  074%=      5-min Rain = 0
KTAS 140951Z 05009KT 23/18 A3011 RMK A01 T02300182  RH  074%=      5-min Rain = 0
KTAS 140952Z 05008KT 23/18 A3011 RMK A01 T02300182  RH  074%=      5-min Rain = 0
KTAS 140953Z 06007KT 23/18 A3011 RMK A01 T02300182  RH  074%=      5-min Rain = 0
KTAS 140954Z 05008KT 23/18 A3011 RMK A01 T02300182  RH  074%=      5-min Rain = 0
KTAS 140955Z 05007KT 23/18 A3011 RMK A01 T02300182  RH  074%=      5-min Rain = 0
KTAS 140956Z 06008KT 23/18 A3011 RMK A01 T02300182  RH  074%=      5-min Rain = 0
KTAS 140957Z 05008KT 23/18 A3011 RMK A01 T02300182  RH  074%=      5-min Rain = 0
KTAS 140958Z 06007KT 23/18 A3011 RMK A01 T02300182  RH  074%=      5-min Rain = 0
KTAS 140959Z 05007KT 23/18 A3011 RMK A01 T02300182  RH  074%=      5-min Rain = 0
KTAS 141000Z 05009KT 23/18 A3011 RMK A01 T02300182  RH  074%=      5-min Rain = 0
KTAS 141001Z 05008KT 23/18 A3012 RMK A01 T02300182  RH  074%=      5-min Rain = 0
KTAS 141002Z 05009KT 23/18 A3012 RMK A01 T02300182  RH  074%=      5-min Rain = 0
KTAS 141003Z 05008KT 23/18 A3012 RMK A01 T02300182  RH  074%=      5-min Rain = 0
KTAS 141004Z 05008KT 23/18 A3012 RMK A01 T02300182  RH  074%=      5-min Rain = 0
KTAS 141005Z 05009KT 23/18 A3012 RMK A01 T02290181  RH  074%=      5-min Rain = 0
KTAS 141006Z 05008KT 23/18 A3012 RMK A01 T02300181  RH  074%=      5-min Rain = 0
KTAS 141007Z 05010KT 23/18 A3012 RMK A01 T02300182  RH  074%=      5-min Rain = 0
KTAS 141008Z 05008KT 23/18 A3012 RMK A01 T02300182  RH  074%=      5-min Rain = 0
KTAS 141009Z 05008KT 23/18 A3012 RMK A01 T02300182  RH  074%=      5-min Rain = 0
KTAS 141010Z 05007KT 23/18 A3012 RMK A01 T02300182  RH  074%=      5-min Rain = 0
KTAS 141011Z 05008KT 23/18 A3012 RMK A01 T02300182  RH  074%=      5-min Rain = 0
KTAS 141012Z 05008KT 23/18 A3012 RMK A01 T02290181  RH  074%=      5-min Rain = 0
KTAS 141013Z 05008KT 23/18 A3012 RMK A01 T02290181  RH  075%=      5-min Rain = 0
KTAS 141014Z 05008KT 23/18 A3012 RMK A01 T02290181  RH  075%=      5-min Rain = 0
KTAS 141015Z 05008KT 23/18 A3012 RMK A01 T02290181  RH  074%=      5-min Rain = 0
KTAS 141016Z 05008KT 23/18 A3012 RMK A01 T02290181  RH  075%=      5-min Rain = 0
KTAS 141017Z 05008KT 23/18 A3012 RMK A01 T02290181  RH  075%=      5-min Rain = 0
KTAS 141018Z 05008KT 23/18 A3012 RMK A01 T02290181  RH  074%=      5-min Rain = 0
KTAS 141019Z 05008KT 23/18 A3012 RMK A01 T02290181  RH  074%=      5-min Rain = 0
KTAS 141020Z 05008KT 23/18 A3012 RMK A01 T02290181  RH  074%=      5-min Rain = 0
KTAS 141021Z 05008KT 23/18 A3012 RMK A01 T02290181  RH  075%=      5-min Rain = 0
KTAS 141022Z 05007KT 23/18 A3012 RMK A01 T02280181  RH  075%=      5-min Rain = 0
KTAS 141023Z 05008KT 23/18 A3012 RMK A01 T02280181  RH  075%=      5-min Rain = 0
KTAS 141024Z 05007KT 23/18 A3012 RMK A01 T02280181  RH  075%=      5-min Rain = 0
KTAS 141025Z 05007KT 23/18 A3012 RMK A01 T02290181  RH  074%=      5-min Rain = 0
KTAS 141026Z 05007KT 23/18 A3012 RMK A01 T02280181  RH  075%=      5-min Rain = 0
KTAS 141027Z 05008KT 23/18 A3012 RMK A01 T02280181  RH  075%=      5-min Rain = 0
KTAS 141028Z 05007KT 23/18 A3012 RMK A01 T02280181  RH  075%=      5-min Rain = 0
KTAS 141029Z 06007KT 23/18 A3012 RMK A01 T02280181  RH  075%=      5-min Rain = 0
KTAS 141030Z 05008KT 23/18 A3013 RMK A01 T02280181  RH  075%=      5-min Rain = 0
KTAS 141031Z 06008KT 23/18 A3013 RMK A01 T02280181  RH  075%=      5-min Rain = 0
KTAS 141032Z 05007KT 23/18 A3013 RMK A01 T02280181  RH  075%=      5-min Rain = 0
KTAS 141033Z 05007KT 23/18 A3013 RMK A01 T02280181  RH  075%=      5-min Rain = 0
KTAS 141034Z 05006KT 23/18 A3013 RMK A01 T02280181  RH  075%=      5-min Rain = 0
KTAS 141035Z 06007KT 23/18 A3013 RMK A01 T02280181  RH  075%=      5-min Rain = 0
KTAS 141036Z 05006KT 23/18 A3013 RMK A01 T02270181  RH  075%=      5-min Rain = 0
KTAS 141037Z 05008KT 23/18 A3013 RMK A01 T02270181  RH  075%=      5-min Rain = 0
KTAS 141038Z 05008KT 23/18 A3013 RMK A01 T02270181  RH  075%=      5-min Rain = 0
KTAS 141039Z 05007KT 23/18 A3013 RMK A01 T02270181  RH  075%=      5-min Rain = 0
KTAS 141040Z 05008KT 23/18 A3013 RMK A01 T02270181  RH  075%=      5-min Rain = 0
KTAS 141041Z 05007KT 23/18 A3013 RMK A01 T02270181  RH  075%=      5-min Rain = 0
KTAS 141042Z 05007KT 23/18 A3013 RMK A01 T02270181  RH  075%=      5-min Rain = 0
KTAS 141043Z 05007KT 23/18 A3013 RMK A01 T02270181  RH  075%=      5-min Rain = 0
KTAS 141044Z 05007KT 23/18 A3013 RMK A01 T02270181  RH  075%=      5-min Rain = 0
KTAS 141045Z 05006KT 23/18 A3013 RMK A01 T02270181  RH  075%=      5-min Rain = 0
KTAS 141046Z 05006KT 23/18 A3013 RMK A01 T02270181  RH  075%=      5-min Rain = 0
KTAS 141047Z 05005KT 23/18 A3013 RMK A01 T02260181  RH  076%=      5-min Rain = 0
KTAS 141048Z 05007KT 23/18 A3013 RMK A01 T02260181  RH  076%=      5-min Rain = 0
KTAS 141049Z 05006KT 23/18 A3013 RMK A01 T02260181  RH  076%=      5-min Rain = 0
KTAS 141050Z 05005KT 23/18 A3013 RMK A01 T02260181  RH  076%=      5-min Rain = 0
KTAS 141051Z 05005KT 23/18 A3013 RMK A01 T02260181  RH  076%=      5-min Rain = 0
KTAS 141052Z 05005KT 23/18 A3013 RMK A01 T02260181  RH  076%=      5-min Rain = 0
KTAS 141053Z 06006KT 23/18 A3013 RMK A01 T02250181  RH  076%=      5-min Rain = 0
KTAS 141054Z 06006KT 23/18 A3013 RMK A01 T02260181  RH  076%=      5-min Rain = 0
KTAS 141055Z 06006KT 23/18 A3013 RMK A01 T02260181  RH  076%=      5-min Rain = 0
KTAS 141056Z 06006KT 23/18 A3013 RMK A01 T02260181  RH  076%=      5-min Rain = 0
KTAS 141057Z 06006KT 23/18 A3013 RMK A01 T02260181  RH  076%=      5-min Rain = 0
KTAS 141058Z 06006KT 23/18 A3014 RMK A01 T02270181  RH  076%=      5-min Rain = 0
KTAS 141059Z 06006KT 23/18 A3014 RMK A01 T02270181  RH  075%=      5-min Rain = 0
KTAS 141100Z 06006KT 23/18 A3014 RMK A01 T02270181  RH  075%=      5-min Rain = 0
KTAS 141101Z 06005KT 23/18 A3014 RMK A01 T02270181  RH  075%=      5-min Rain = 0
KTAS 141102Z 05005KT 23/18 A3014 RMK A01 T02270181  RH  075%=      5-min Rain = 0
KTAS 141103Z 05006KT 23/18 A3014 RMK A01 T02270181  RH  075%=      5-min Rain = 0
KTAS 141104Z 05005KT 23/18 A3014 RMK A01 T02280181  RH  075%=      5-min Rain = 0
KTAS 141105Z 05006KT 23/18 A3014 RMK A01 T02280182  RH  075%=      5-min Rain = 0
KTAS 141106Z 05006KT 23/18 A3014 RMK A01 T02280182  RH  075%=      5-min Rain = 0
KTAS 141107Z 05006KT 23/18 A3015 RMK A01 T02290182  RH  075%=      5-min Rain = 0
KTAS 141108Z 04006KT 23/18 A3015 RMK A01 T02290182  RH  074%=      5-min Rain = 0
KTAS 141109Z 04006KT 23/18 A3015 RMK A01 T02300182  RH  074%=      5-min Rain = 0
KTAS 141110Z 05006KT 23/18 A3015 RMK A01 T02300182  RH  074%=      5-min Rain = 0
KTAS 141111Z 04006KT 23/18 A3015 RMK A01 T02310182  RH  074%=      5-min Rain = 0
KTAS 141112Z 04006KT 23/18 A3015 RMK A01 T02310182  RH  074%=      5-min Rain = 0
KTAS 141113Z 04007KT 23/18 A3015 RMK A01 T02310182  RH  074%=      5-min Rain = 0
KTAS 141114Z 05006KT 23/18 A3015 RMK A01 T02320182  RH  073%=      5-min Rain = 0
KTAS 141115Z 04008KT 23/18 A3015 RMK A01 T02320181  RH  073%=      5-min Rain = 0
KTAS 141116Z 04010KT 23/18 A3015 RMK A01 T02330181  RH  073%=      5-min Rain = 0
KTAS 141117Z 04009KT 23/18 A3015 RMK A01 T02330181  RH  072%=      5-min Rain = 0
KTAS 141118Z 04009KT 23/18 A3015 RMK A01 T02340181  RH  072%=      5-min Rain = 0
KTAS 141119Z 04010KT 23/18 A3015 RMK A01 T02340181  RH  072%=      5-min Rain = 0
KTAS 141120Z 04013G18KT 23/18 A3015 RMK A01 T02340180  RH  072%=      5-min Rain = 0
KTAS 141121Z 04015G20KT 24/18 A3015 RMK A01 T02350179  RH  071%=      5-min Rain = 0
KTAS 141122Z 04015KT 24/18 A3015 RMK A01 T02350179  RH  070%=      5-min Rain = 0
KTAS 141123Z 04016KT 24/18 A3015 RMK A01 T02350178  RH  070%=      5-min Rain = 0
KTAS 141124Z 04018G23KT 24/18 A3016 RMK A01 T02350177  RH  070%=      5-min Rain = 0
KTAS 141125Z 04016KT 24/18 A3016 RMK A01 T02350177  RH  070%=      5-min Rain = 0
KTAS 141126Z 04016G22KT 24/18 A3016 RMK A01 T02350177  RH  070%=      5-min Rain = 0
KTAS 141127Z 04015KT 23/18 A3016 RMK A01 T02340176  RH  070%=      5-min Rain = 0
KTAS 141128Z 04017KT 23/18 A3016 RMK A01 T02330176  RH  070%=      5-min Rain = 0
KTAS 141129Z 04019KT 23/18 A3016 RMK A01 T02320175  RH  070%=      5-min Rain = 0
KTAS 141130Z 04016KT 23/18 A3016 RMK A01 T02320175  RH  070%=      5-min Rain = 0
KTAS 141131Z 04019KT 23/17 A3016 RMK A01 T02310174  RH  070%=      5-min Rain = 0
KTAS 141132Z 04016G21KT 23/17 A3016 RMK A01 T02310174  RH  070%=      5-min Rain = 0
KTAS 141133Z 05015G20KT 23/17 A3016 RMK A01 T02300174  RH  071%=      5-min Rain = 0
KTAS 141134Z 04014G19KT 23/17 A3016 RMK A01 T02300174  RH  071%=      5-min Rain = 0
KTAS 141135Z 04018KT 23/17 A3016 RMK A01 T02290174  RH  071%=      5-min Rain = 0
KTAS 141136Z 03019KT 23/17 A3016 RMK A01 T02290174  RH  071%=      5-min Rain = 0
KTAS 141137Z 04018G23KT 23/17 A3016 RMK A01 T02290174  RH  071%=      5-min Rain = 0
KTAS 141138Z 04015G20KT 23/17 A3016 RMK A01 T02280174  RH  071%=      5-min Rain = 0
KTAS 141139Z 04016G21KT 23/17 A3016 RMK A01 T02280174  RH  071%=      5-min Rain = 0
KTAS 141140Z 05015G20KT 23/17 A3016 RMK A01 T02280174  RH  072%=      5-min Rain = 0
KTAS 141141Z 05016KT 23/17 A3016 RMK A01 T02270174  RH  072%=      5-min Rain = 0
KTAS 141142Z 04014KT 23/17 A3016 RMK A01 T02270174  RH  072%=      5-min Rain = 0
KTAS 141143Z 05014KT 23/17 A3016 RMK A01 T02260174  RH  072%=      5-min Rain = 0
KTAS 141144Z 04015G21KT 23/17 A3016 RMK A01 T02260174  RH  072%=      5-min Rain = 0
KTAS 141145Z 04017G22KT 23/17 A3016 RMK A01 T02250174  RH  073%=      5-min Rain = 0
KTAS 141146Z 04017KT 23/17 A3015 RMK A01 T02250174  RH  073%=      5-min Rain = 0
KTAS 141147Z 04016KT 22/17 A3016 RMK A01 T02240174  RH  073%=      5-min Rain = 0
KTAS 141148Z 04016KT 22/17 A3016 RMK A01 T02240174  RH  073%=      5-min Rain = 0
KTAS 141149Z 04017KT 22/17 A3016 RMK A01 T02240174  RH  073%=      5-min Rain = 0
KTAS 141150Z 04018KT 22/17 A3016 RMK A01 T02240174  RH  073%=      5-min Rain = 0
KTAS 141151Z 04018KT 22/17 A3016 RMK A01 T02240174  RH  073%=      5-min Rain = 0
KTAS 141152Z 04016KT 22/17 A3016 RMK A01 T02230174  RH  074%=      5-min Rain = 0
KTAS 141153Z 04016KT 22/17 A3016 RMK A01 T02230174  RH  074%=      5-min Rain = 0
KTAS 141154Z 04016KT 22/17 A3016 RMK A01 T02220174  RH  074%=      5-min Rain = 0
KTAS 141155Z 04013KT 22/17 A3016 RMK A01 T02220174  RH  074%=      5-min Rain = 0
KTAS 141156Z 05014G19KT 22/17 A3016 RMK A01 T02220174  RH  074%=      5-min Rain = 0
KTAS 141157Z 04012KT 22/17 A3016 RMK A01 T02210173  RH  074%=      5-min Rain = 0
KTAS 141158Z 05011KT 22/17 A3017 RMK A01 T02210173  RH  074%=      5-min Rain = 0
KTAS 141159Z 05015KT 22/17 A3016 RMK A01 T02200173  RH  074%=      5-min Rain = 0
KTAS 141200Z 05015KT 22/17 A3016 RMK A01 T02200173  RH  074%=      5-min Rain = 0
KTAS 141201Z 04014KT 22/17 A3017 RMK A01 T02200173  RH  074%=      5-min Rain = 0
KTAS 141202Z 04013KT 22/17 A3017 RMK A01 T02200173  RH  075%=      5-min Rain = 0
KTAS 141203Z 04013KT 22/17 A3017 RMK A01 T02200173  RH  075%=      5-min Rain = 0
KTAS 141204Z 04012KT 22/17 A3017 RMK A01 T02190173  RH  075%=      5-min Rain = 0
KTAS 141205Z 04015KT 22/17 A3017 RMK A01 T02190173  RH  075%=      5-min Rain = 0
KTAS 141206Z 04016KT 22/17 A3017 RMK A01 T02190173  RH  075%=      5-min Rain = 0
KTAS 141207Z 05013KT 22/17 A3017 RMK A01 T02190173  RH  075%=      5-min Rain = 0
KTAS 141208Z 04014KT 22/17 A3017 RMK A01 T02190173  RH  075%=      5-min Rain = 0
KTAS 141209Z 04014KT 22/17 A3017 RMK A01 T02180173  RH  075%=      5-min Rain = 0
KTAS 141210Z 04016KT 22/17 A3017 RMK A01 T02180173  RH  075%=      5-min Rain = 0
KTAS 141211Z 04013KT 22/17 A3017 RMK A01 T02180173  RH  075%=      5-min Rain = 0
KTAS 141212Z 04012KT 22/17 A3017 RMK A01 T02180173  RH  076%=      5-min Rain = 0
KTAS 141213Z 04010KT 22/17 A3017 RMK A01 T02180173  RH  076%=      5-min Rain = 0
KTAS 141214Z 04012G18KT 22/17 A3017 RMK A01 T02170173  RH  076%=      5-min Rain = 0
KTAS 141215Z 04016G21KT 22/17 A3017 RMK A01 T02170173  RH  076%=      5-min Rain = 0
KTAS 141216Z 04017KT 22/17 A3017 RMK A01 T02170173  RH  076%=      5-min Rain = 0
KTAS 141217Z 04018KT 22/17 A3017 RMK A01 T02170172  RH  076%=      5-min Rain = 0
KTAS 141218Z 04015KT 22/17 A3017 RMK A01 T02170172  RH  076%=      5-min Rain = 0
KTAS 141219Z 04017KT 22/17 A3017 RMK A01 T02170172  RH  076%=      5-min Rain = 0
KTAS 141220Z 04014G19KT 22/17 A3017 RMK A01 T02160172  RH  076%=      5-min Rain = 0
KTAS 141221Z 04016KT 22/17 A3017 RMK A01 T02160172  RH  076%=      5-min Rain = 0
KTAS 141222Z 04015KT 22/17 A3017 RMK A01 T02160172  RH  076%=      5-min Rain = 0
KTAS 141223Z 04014KT 22/17 A3017 RMK A01 T02160171  RH  076%=      5-min Rain = 0
KTAS 141224Z 04014KT 22/17 A3017 RMK A01 T02160171  RH  076%=      5-min Rain = 0
KTAS 141225Z 04015G21KT 22/17 A3017 RMK A01 T02160171  RH  076%=      5-min Rain = 0
KTAS 141226Z 04017G22KT 22/17 A3017 RMK A01 T02150169  RH  075%=      5-min Rain = 0
KTAS 141227Z 04015KT 22/17 A3017 RMK A01 T02150169  RH  075%=      5-min Rain = 0
KTAS 141228Z 04015KT 22/17 A3017 RMK A01 T02150168  RH  075%=      5-min Rain = 0
KTAS 141229Z 04014KT 21/17 A3018 RMK A01 T02140168  RH  075%=      5-min Rain = 0
KTAS 141230Z 04018KT 21/17 A3017 RMK A01 T02140168  RH  075%=      5-min Rain = 0
KTAS 141231Z 04016KT 21/17 A3018 RMK A01 T02140167  RH  075%=      5-min Rain = 0
KTAS 141232Z 04019KT 21/17 A3018 RMK A01 T02140167  RH  074%=      5-min Rain = 0
KTAS 141233Z 05014KT 21/17 A3018 RMK A01 T02140167  RH  074%=      5-min Rain = 0
KTAS 141234Z 04015KT 21/17 A3018 RMK A01 T02140167  RH  075%=      5-min Rain = 0
KTAS 141235Z 04017KT 21/17 A3018 RMK A01 T02140168  RH  075%=      5-min Rain = 0
KTAS 141236Z 04014KT 21/17 A3018 RMK A01 T02140167  RH  075%=      5-min Rain = 0
KTAS 141237Z 04015KT 21/17 A3018 RMK A01 T02140167  RH  075%=      5-min Rain = 0
KTAS 141238Z 04015KT 21/17 A3018 RMK A01 T02140167  RH  074%=      5-min Rain = 0
KTAS 141239Z 03016G22KT 21/17 A3018 RMK A01 T02140166  RH  074%=      5-min Rain = 0
KTAS 141240Z 03017KT 21/17 A3018 RMK A01 T02140165  RH  074%=      5-min Rain = 0
KTAS 141241Z 04017G22KT 21/17 A3018 RMK A01 T02140165  RH  074%=      5-min Rain = 0
KTAS 141242Z 03017KT 21/16 A3018 RMK A01 T02140164  RH  073%=      5-min Rain = 0
KTAS 141243Z 04016KT 21/16 A3018 RMK A01 T02140164  RH  073%=      5-min Rain = 0
KTAS 141244Z 04016KT 21/16 A3018 RMK A01 T02130164  RH  073%=      5-min Rain = 0
KTAS 141245Z 04015KT 21/16 A3018 RMK A01 T02130164  RH  073%=      5-min Rain = 0
KTAS 141246Z 04016KT 21/16 A3018 RMK A01 T02130163  RH  073%=      5-min Rain = 0
KTAS 141247Z 05014KT 21/16 A3018 RMK A01 T02130163  RH  073%=      5-min Rain = 0
KTAS 141248Z 04013KT 21/16 A3018 RMK A01 T02130163  RH  073%=      5-min Rain = 0
KTAS 141249Z 04013KT 21/16 A3018 RMK A01 T02130163  RH  073%=      5-min Rain = 0
KTAS 141250Z 04013KT 21/16 A3018 RMK A01 T02130163  RH  073%=      5-min Rain = 0
KTAS 141251Z 04013KT 21/16 A3018 RMK A01 T02130163  RH  073%=      5-min Rain = 0
KTAS 141252Z 04013KT 21/16 A3019 RMK A01 T02130163  RH  073%=      5-min Rain = 0
KTAS 141253Z 04012KT 21/16 A3019 RMK A01 T02130164  RH  073%=      5-min Rain = 0
KTAS 141254Z 04014KT 21/16 A3019 RMK A01 T02140164  RH  073%=      5-min Rain = 0
KTAS 141255Z 04014KT 21/16 A3019 RMK A01 T02140163  RH  073%=      5-min Rain = 0
KTAS 141256Z 03014KT 21/16 A3019 RMK A01 T02140163  RH  073%=      5-min Rain = 0
KTAS 141257Z 04011G16KT 21/16 A3019 RMK A01 T02140163  RH  073%=      5-min Rain = 0
KTAS 141258Z 05013G18KT 22/16 A3019 RMK A01 T02150164  RH  073%=      5-min Rain = 0
KTAS 141259Z 04015KT 21/16 A3019 RMK A01 T02140162  RH  072%=      5-min Rain = 0
KTAS 141300Z 05012KT 21/16 A3019 RMK A01 T02140163  RH  072%=      5-min Rain = 0
KTAS 141301Z 04010KT 22/16 A3019 RMK A01 T02150163  RH  072%=      5-min Rain = 0
KTAS 141302Z 05012KT 22/16 A3019 RMK A01 T02160163  RH  072%=      5-min Rain = 0
KTAS 141303Z 04011KT 22/16 A3019 RMK A01 T02160163  RH  072%=      5-min Rain = 0
KTAS 141304Z 03016KT 22/16 A3019 RMK A01 T02160163  RH  072%=      5-min Rain = 0
KTAS 141305Z 04016KT 22/16 A3019 RMK A01 T02150162  RH  072%=      5-min Rain = 0
KTAS 141306Z 04013KT 22/16 A3019 RMK A01 T02150162  RH  072%=      5-min Rain = 0
KTAS 141307Z 03014KT 22/16 A3019 RMK A01 T02150162  RH  072%=      5-min Rain = 0
KTAS 141308Z 03012KT 22/16 A3019 RMK A01 T02160163  RH  072%=      5-min Rain = 0
KTAS 141309Z 03012KT 22/16 A3019 RMK A01 T02160163  RH  072%=      5-min Rain = 0
KTAS 141310Z 03014KT 22/16 A3019 RMK A01 T02160162  RH  071%=      5-min Rain = 0
KTAS 141311Z 04010KT 22/16 A3019 RMK A01 T02160163  RH  072%=      5-min Rain = 0
KTAS 141312Z 04012KT 22/16 A3019 RMK A01 T02160163  RH  072%=      5-min Rain = 0
KTAS 141313Z 04015G21KT 22/16 A3019 RMK A01 T02160162  RH  071%=      5-min Rain = 0
KTAS 141314Z 03015KT 22/16 A3019 RMK A01 T02160161  RH  071%=      5-min Rain = 0
KTAS 141315Z 04016KT 22/16 A3019 RMK A01 T02160160  RH  070%=      5-min Rain = 0
KTAS 141316Z 04018G24KT 22/16 A302 RMK A01 T02160159  RH  070%=      5-min Rain = 0
KTAS 141317Z 04015KT 22/16 A302 RMK A01 T02150159  RH  070%=      5-min Rain = 0
KTAS 141318Z 04015KT 22/16 A302 RMK A01 T02150159  RH  070%=      5-min Rain = 0
KTAS 141319Z 03013KT 22/16 A302 RMK A01 T02170160  RH  070%=      5-min Rain = 0
KTAS 141320Z 03016KT 22/16 A302 RMK A01 T02180160  RH  069%=      5-min Rain = 0
KTAS 141321Z 03017KT 22/16 A302 RMK A01 T02180159  RH  069%=      5-min Rain = 0
KTAS 141322Z 04015G20KT 22/16 A302 RMK A01 T02180158  RH  069%=      5-min Rain = 0
KTAS 141323Z 03012KT 22/16 A302 RMK A01 T02180159  RH  069%=      5-min Rain = 0
KTAS 141324Z 04015KT 22/16 A302 RMK A01 T02190159  RH  069%=      5-min Rain = 0
KTAS 141325Z 04016KT 22/16 A302 RMK A01 T02190158  RH  069%=      5-min Rain = 0
KTAS 141326Z 03011KT 22/16 A302 RMK A01 T02190159  RH  069%=      5-min Rain = 0
KTAS 141327Z 04012G17KT 22/16 A3021 RMK A01 T02200160  RH  069%=      5-min Rain = 0
KTAS 141328Z 03014G21KT 22/16 A3021 RMK A01 T02200159  RH  068%=      5-min Rain = 0
KTAS 141329Z 03015G20KT 22/16 A3021 RMK A01 T02190158  RH  068%=      5-min Rain = 0
KTAS 141330Z 03013KT 22/16 A3021 RMK A01 T02180158  RH  069%=      5-min Rain = 0
KTAS 141331Z 04016G21KT 22/16 A3021 RMK A01 T02180158  RH  069%=      5-min Rain = 0
KTAS 141332Z 03016KT 22/16 A3021 RMK A01 T02180157  RH  068%=      5-min Rain = 0
KTAS 141333Z 03013KT 22/16 A3021 RMK A01 T02170157  RH  069%=      5-min Rain = 0
KTAS 141334Z 03014G21KT 22/16 A3021 RMK A01 T02190158  RH  069%=      5-min Rain = 0
KTAS 141335Z 03019G24KT 22/16 A3021 RMK A01 T02190157  RH  068%=      5-min Rain = 0
KTAS 141336Z 03019KT 22/16 A3021 RMK A01 T02180157  RH  068%=      5-min Rain = 0
KTAS 141337Z 03016KT 22/16 A3021 RMK A01 T02180157  RH  068%=      5-min Rain = 0
KTAS 141338Z 02016KT 22/16 A3021 RMK A01 T02190158  RH  068%=      5-min Rain = 0
KTAS 141339Z 02017KT 22/16 A3021 RMK A01 T02200157  RH  068%=      5-min Rain = 0
KTAS 141340Z 03019KT 22/16 A3021 RMK A01 T02200157  RH  067%=      5-min Rain = 0
KTAS 141341Z 03015G20KT 22/16 A3021 RMK A01 T02200158  RH  068%=      5-min Rain = 0
KTAS 141342Z 03016KT 22/16 A3021 RMK A01 T02210158  RH  067%=      5-min Rain = 0
KTAS 141343Z 02017KT 22/16 A3021 RMK A01 T02220157  RH  067%=      5-min Rain = 0
KTAS 141344Z 03017KT 22/16 A3021 RMK A01 T02210157  RH  067%=      5-min Rain = 0
KTAS 141345Z 03016G21KT 22/16 A3021 RMK A01 T02210157  RH  067%=      5-min Rain = 0
KTAS 141346Z 03015KT 22/16 A3021 RMK A01 T02220158  RH  067%=      5-min Rain = 0
KTAS 141347Z 03016KT 22/16 A3021 RMK A01 T02230158  RH  067%=      5-min Rain = 0
KTAS 141348Z 02016KT 22/16 A3022 RMK A01 T02240158  RH  066%=      5-min Rain = 0
KTAS 141349Z 02017G22KT 22/16 A3022 RMK A01 T02240158  RH  066%=      5-min Rain = 0
KTAS 141350Z 02018G23KT 22/16 A3022 RMK A01 T02240158  RH  066%=      5-min Rain = 0
KTAS 141351Z 02017KT 22/16 A3022 RMK A01 T02230157  RH  066%=      5-min Rain = 0
KTAS 141352Z 03017KT 22/16 A3022 RMK A01 T02230157  RH  066%=      5-min Rain = 0
KTAS 141353Z 03016KT 22/16 A3022 RMK A01 T02230157  RH  066%=      5-min Rain = 0
KTAS 141354Z 03014G19KT 22/16 A3022 RMK A01 T02230158  RH  067%=      5-min Rain = 0
KTAS 141355Z 03015KT 22/16 A3022 RMK A01 T02240158  RH  066%=      5-min Rain = 0
KTAS 141356Z 03017KT 22/16 A3022 RMK A01 T02230157  RH  066%=      5-min Rain = 0
KTAS 141357Z 03016KT 22/16 A3022 RMK A01 T02220157  RH  067%=      5-min Rain = 0
KTAS 141358Z 03014KT 22/16 A3022 RMK A01 T02220158  RH  067%=      5-min Rain = 0
KTAS 141359Z 03014KT 22/16 A3022 RMK A01 T02220158  RH  067%=      5-min Rain = 0
KTAS 141400Z 03017KT 22/16 A3022 RMK A01 T02220157  RH  067%=      5-min Rain = 0
KTAS 141401Z 03017KT 22/16 A3022 RMK A01 T02220157  RH  067%=      5-min Rain = 0
KTAS 141402Z 03015G20KT 22/16 A3023 RMK A01 T02220158  RH  067%=      5-min Rain = 0
KTAS 141403Z 03013KT 22/16 A3023 RMK A01 T02230158  RH  067%=      5-min Rain = 0
KTAS 141404Z 03016KT 22/16 A3023 RMK A01 T02240158  RH  066%=      5-min Rain = 0
KTAS 141405Z 03015KT 23/16 A3023 RMK A01 T02250158  RH  066%=      5-min Rain = 0
KTAS 141406Z 03017KT 23/16 A3023 RMK A01 T02250158  RH  066%=      5-min Rain = 0
KTAS 141407Z 04019KT 22/16 A3023 RMK A01 T02240157  RH  066%=      5-min Rain = 0
KTAS 141408Z 03017KT 22/16 A3023 RMK A01 T02240157  RH  066%=      5-min Rain = 0
KTAS 141409Z 03019KT 22/16 A3023 RMK A01 T02240157  RH  066%=      5-min Rain = 0
KTAS 141410Z 04018KT 22/16 A3023 RMK A01 T02240157  RH  066%=      5-min Rain = 0
KTAS 141411Z 03018KT 22/16 A3023 RMK A01 T02240157  RH  066%=      5-min Rain = 0
KTAS 141412Z 03017KT 23/16 A3023 RMK A01 T02250158  RH  066%=      5-min Rain = 0
KTAS 141413Z 03019KT 23/16 A3023 RMK A01 T02270158  RH  065%=      5-min Rain = 0
KTAS 141414Z 03017KT 23/16 A3023 RMK A01 T02290158  RH  064%=      5-min Rain = 0
KTAS 141415Z 03014KT 23/16 A3023 RMK A01 T02300158  RH  064%=      5-min Rain = 0
KTAS 141416Z 03017KT 23/16 A3023 RMK A01 T02300158  RH  064%=      5-min Rain = 0
KTAS 141417Z 03015KT 23/16 A3023 RMK A01 T02290158  RH  064%=      5-min Rain = 0
KTAS 141418Z 03016G21KT 23/16 A3023 RMK A01 T02300159  RH  064%=      5-min Rain = 0
KTAS 141419Z 03015KT 23/16 A3023 RMK A01 T02310158  RH  064%=      5-min Rain = 0
KTAS 141420Z 03014KT 23/16 A3023 RMK A01 T02310158  RH  064%=      5-min Rain = 0
KTAS 141421Z 03016KT 23/16 A3023 RMK A01 T02320159  RH  063%=      5-min Rain = 0
KTAS 141422Z 03015KT 23/16 A3023 RMK A01 T02320158  RH  063%=      5-min Rain = 0
KTAS 141423Z 03016KT 23/16 A3023 RMK A01 T02330158  RH  063%=      5-min Rain = 0
KTAS 141424Z 04015KT 23/16 A3023 RMK A01 T02330158  RH  063%=      5-min Rain = 0
KTAS 141425Z 03013KT 23/16 A3023 RMK A01 T02340159  RH  063%=      5-min Rain = 0
KTAS 141426Z 02015KT 24/16 A3023 RMK A01 T02360160  RH  062%=      5-min Rain = 0
KTAS 141427Z 02016KT 24/16 A3023 RMK A01 T02370159  RH  062%=      5-min Rain = 0
KTAS 141428Z 03015KT 24/16 A3023 RMK A01 T02360159  RH  062%=      5-min Rain = 0
KTAS 141429Z 03016KT 24/16 A3023 RMK A01 T02370159  RH  062%=      5-min Rain = 0
KTAS 141430Z 03015KT 24/16 A3023 RMK A01 T02380159  RH  061%=      5-min Rain = 0
KTAS 141431Z 03017KT 24/16 A3023 RMK A01 T02390159  RH  061%=      5-min Rain = 0
KTAS 141432Z 03015KT 24/16 A3023 RMK A01 T02400159  RH  060%=      5-min Rain = 0
KTAS 141433Z 03014KT 24/16 A3023 RMK A01 T02410159  RH  060%=      5-min Rain = 0
KTAS 141434Z 03012KT 24/16 A3023 RMK A01 T02410160  RH  060%=      5-min Rain = 0
KTAS 141435Z 02012G18KT 24/16 A3023 RMK A01 T02440162  RH  060%=      5-min Rain = 0
KTAS 141436Z 03013G18KT 25/16 A3023 RMK A01 T02460161  RH  059%=      5-min Rain = 0
KTAS 141437Z 03013KT 25/16 A3023 RMK A01 T02470161  RH  059%=      5-min Rain = 0
KTAS 141438Z 02015KT 25/16 A3023 RMK A01 T02470161  RH  059%=      5-min Rain = 0
KTAS 141439Z 02017KT 25/16 A3023 RMK A01 T02460160  RH  059%=      5-min Rain = 0
KTAS 141440Z 02016KT 25/16 A3023 RMK A01 T02450160  RH  059%=      5-min Rain = 0
KTAS 141441Z 03014KT 25/16 A3023 RMK A01 T02460161  RH  059%=      5-min Rain = 0
KTAS 141442Z 04013KT 25/16 A3023 RMK A01 T02470161  RH  059%=      5-min Rain = 0
KTAS 141443Z 04014KT 25/16 A3023 RMK A01 T02480161  RH  058%=      5-min Rain = 0
KTAS 141444Z 04013KT 25/16 A3023 RMK A01 T02480161  RH  058%=      5-min Rain = 0
KTAS 141445Z 04015KT 25/16 A3023 RMK A01 T02490161  RH  058%=      5-min Rain = 0
KTAS 141446Z 03014KT 25/16 A3023 RMK A01 T02490161  RH  058%=      5-min Rain = 0
KTAS 141447Z 03013KT 25/16 A3023 RMK A01 T02510163  RH  058%=      5-min Rain = 0
KTAS 141448Z 04015KT 25/16 A3023 RMK A01 T02540163  RH  057%=      5-min Rain = 0
KTAS 141449Z 03016KT 25/16 A3023 RMK A01 T02530162  RH  057%=      5-min Rain = 0
KTAS 141450Z 03016KT 25/16 A3023 RMK A01 T02530162  RH  057%=      5-min Rain = 0
KTAS 141451Z 03013KT 25/16 A3023 RMK A01 T02530162  RH  057%=      5-min Rain = 0
KTAS 141452Z 03015KT 25/16 A3023 RMK A01 T02540162  RH  057%=      5-min Rain = 0
KTAS 141453Z 04012KT 26/16 A3023 RMK A01 T02560163  RH  057%=      5-min Rain = 0
KTAS 141454Z 03016KT 26/16 A3023 RMK A01 T02550162  RH  056%=      5-min Rain = 0
KTAS 141455Z 03015KT 25/16 A3023 RMK A01 T02540162  RH  057%=      5-min Rain = 0
KTAS 141456Z 04016KT 25/16 A3023 RMK A01 T02530162  RH  057%=      5-min Rain = 0
KTAS 141457Z 03013KT 25/16 A3023 RMK A01 T02530162  RH  057%=      5-min Rain = 0
KTAS 141458Z 05013KT 25/16 A3022 RMK A01 T02540163  RH  057%=      5-min Rain = 0
KTAS 141459Z 04016KT 26/16 A3023 RMK A01 T02550164  RH  057%=      5-min Rain = 0
KTAS 141500Z 04014KT 25/16 A3023 RMK A01 T02540162  RH  057%=      5-min Rain = 0
KTAS 141501Z 04012KT 26/17 A3023 RMK A01 T02560165  RH  057%=      5-min Rain = 0
KTAS 141502Z 03013KT 26/16 A3023 RMK A01 T02580164  RH  056%=      5-min Rain = 0
KTAS 141503Z 04015KT 26/16 A3022 RMK A01 T02580164  RH  056%=      5-min Rain = 0
KTAS 141504Z 04012KT 26/16 A3023 RMK A01 T02580164  RH  056%=      5-min Rain = 0
KTAS 141505Z 03016KT 26/17 A3023 RMK A01 T02590165  RH  056%=      5-min Rain = 0
KTAS 141506Z 03016KT 26/16 A3023 RMK A01 T02600164  RH  056%=      5-min Rain = 0
KTAS 141507Z 04016KT 26/16 A3023 RMK A01 T02590164  RH  056%=      5-min Rain = 0
KTAS 141508Z 04016KT 26/16 A3023 RMK A01 T02580164  RH  056%=      5-min Rain = 0
KTAS 141509Z 04014G19KT 26/16 A3023 RMK A01 T02570164  RH  056%=      5-min Rain = 0
KTAS 141510Z 02017KT 26/17 A3023 RMK A01 T02590165  RH  056%=      5-min Rain = 0
KTAS 141511Z 03014KT 26/16 A3023 RMK A01 T02600164  RH  056%=      5-min Rain = 0
KTAS 141512Z 03015KT 26/17 A3023 RMK A01 T02610165  RH  056%=      5-min Rain = 0
KTAS 141513Z 03017KT 26/17 A3023 RMK A01 T02610165  RH  055%=      5-min Rain = 0
KTAS 141514Z 03017KT 26/16 A3023 RMK A01 T02610164  RH  055%=      5-min Rain = 0
KTAS 141515Z 03016KT 26/17 A3023 RMK A01 T02600165  RH  056%=      5-min Rain = 0
KTAS 141516Z 03013KT 26/17 A3023 RMK A01 T02610165  RH  055%=      5-min Rain = 0
KTAS 141517Z 02014KT 26/17 A3023 RMK A01 T02640167  RH  055%=      5-min Rain = 0
KTAS 141518Z 03015KT 27/17 A3023 RMK A01 T02660165  RH  054%=      5-min Rain = 0
KTAS 141519Z 03015KT 27/17 A3023 RMK A01 T02660165  RH  054%=      5-min Rain = 0
KTAS 141520Z 02013KT 27/17 A3023 RMK A01 T02660166  RH  054%=      5-min Rain = 0
KTAS 141521Z 03013KT 27/17 A3023 RMK A01 T02680167  RH  054%=      5-min Rain = 0
KTAS 141522Z 04014KT 27/16 A3023 RMK A01 T02660164  RH  054%=      5-min Rain = 0
KTAS 141523Z 05012KT 27/17 A3023 RMK A01 T02650166  RH  054%=      5-min Rain = 0
KTAS 141524Z 05014KT 27/17 A3022 RMK A01 T02670166  RH  054%=      5-min Rain = 0
KTAS 141525Z 04012KT 27/17 A3022 RMK A01 T02650165  RH  054%=      5-min Rain = 0
KTAS 141526Z 03012KT 27/17 A3023 RMK A01 T02670167  RH  054%=      5-min Rain = 0
KTAS 141527Z 03011KT 27/17 A3022 RMK A01 T02710168  RH  053%=      5-min Rain = 0
KTAS 141528Z 03014KT 27/17 A3022 RMK A01 T02730165  RH  052%=      5-min Rain = 0
KTAS 141529Z 04010KT 27/17 A3022 RMK A01 T02710166  RH  053%=      5-min Rain = 0
KTAS 141530Z 04009KT 27/17 A3023 RMK A01 T02740170  RH  053%=      5-min Rain = 0
KTAS 141531Z 04012KT 28/17 A3022 RMK A01 T02770169  RH  052%=      5-min Rain = 0
KTAS 141532Z 05014KT 28/17 A3022 RMK A01 T02760166  RH  051%=      5-min Rain = 0
KTAS 141533Z 04012KT 27/17 A3022 RMK A01 T02720165  RH  052%=      5-min Rain = 0
KTAS 141534Z 04015KT 27/17 A3023 RMK A01 T02720165  RH  052%=      5-min Rain = 0
KTAS 141535Z 05012KT 27/17 A3022 RMK A01 T02720166  RH  052%=      5-min Rain = 0
KTAS 141536Z 04010KT 27/17 A3022 RMK A01 T02730168  RH  053%=      5-min Rain = 0
KTAS 141537Z 05011KT 28/17 A3022 RMK A01 T02780168  RH  051%=      5-min Rain = 0
KTAS 141538Z 05012KT 28/17 A3022 RMK A01 T02760165  RH  051%=      5-min Rain = 0
KTAS 141539Z 05012KT 28/17 A3022 RMK A01 T02760167  RH  051%=      5-min Rain = 0
KTAS 141540Z 05013KT 28/17 A3022 RMK A01 T02760165  RH  051%=      5-min Rain = 0
KTAS 141541Z 04011KT 27/17 A3023 RMK A01 T02740166  RH  052%=      5-min Rain = 0
KTAS 141542Z 04012KT 28/17 A3023 RMK A01 T02760167  RH  052%=      5-min Rain = 0
KTAS 141543Z 03012G17KT 28/17 A3023 RMK A01 T02780166  RH  051%=      5-min Rain = 0
KTAS 141544Z 04011G16KT 28/17 A3023 RMK A01 T02820169  RH  050%=      5-min Rain = 0
KTAS 141545Z 04017KT 28/17 A3023 RMK A01 T02820165  RH  049%=      5-min Rain = 0
KTAS 141546Z 04015KT 28/16 A3023 RMK A01 T02790164  RH  049%=      5-min Rain = 0
KTAS 141547Z 05015KT 28/17 A3023 RMK A01 T02790165  RH  050%=      5-min Rain = 0
KTAS 141548Z 04016KT 28/16 A3023 RMK A01 T02790164  RH  050%=      5-min Rain = 0
KTAS 141549Z 05016KT 28/17 A3023 RMK A01 T02790165  RH  050%=      5-min Rain = 0
KTAS 141550Z 05015KT 28/16 A3023 RMK A01 T02770164  RH  050%=      5-min Rain = 0
KTAS 141551Z 05011KT 28/17 A3023 RMK A01 T02780166  RH  050%=      5-min Rain = 0
KTAS 141552Z 04011KT 28/17 A3023 RMK A01 T02810167  RH  050%=      5-min Rain = 0
KTAS 141553Z 04011KT 28/17 A3023 RMK A01 T02840167  RH  049%=      5-min Rain = 0
KTAS 141554Z 04013KT 28/17 A3023 RMK A01 T02830166  RH  049%=      5-min Rain = 0
KTAS 141555Z 05013G18KT 28/17 A3023 RMK A01 T02820166  RH  049%=      5-min Rain = 0
KTAS 141556Z 06014KT 28/17 A3023 RMK A01 T02830166  RH  049%=      5-min Rain = 0
KTAS 141557Z 05011KT 28/17 A3023 RMK A01 T02830166  RH  049%=      5-min Rain = 0
KTAS 141558Z 07010KT 28/17 A3023 RMK A01 T02820166  RH  049%=      5-min Rain = 0
KTAS 141559Z 06011KT 28/17 A3023 RMK A01 T02830167  RH  049%=      5-min Rain = 0
KTAS 141600Z 05013G18KT 28/17 A3022 RMK A01 T02830166  RH  049%=      5-min Rain = 0
KTAS 141601Z 05010KT 29/17 A3022 RMK A01 T02850167  RH  049%=      5-min Rain = 0
KTAS 141602Z 04013KT 29/17 A3022 RMK A01 T02870166  RH  048%=      5-min Rain = 0
KTAS 141603Z 03012KT 29/16 A3022 RMK A01 T02850164  RH  048%=      5-min Rain = 0
KTAS 141604Z 04012KT 29/16 A3022 RMK A01 T02850164  RH  048%=      5-min Rain = 0
KTAS 141605Z 05012KT 28/16 A3022 RMK A01 T02840164  RH  048%=      5-min Rain = 0
KTAS 141606Z 04011KT 29/17 A3022 RMK A01 T02850166  RH  048%=      5-min Rain = 0
KTAS 141607Z 05013G18KT 29/17 A3022 RMK A01 T02860165  RH  048%=      5-min Rain = 0
KTAS 141608Z 04011KT 29/17 A3022 RMK A01 T02860165  RH  048%=      5-min Rain = 0
KTAS 141609Z 04009KT 29/16 A3022 RMK A01 T02850164  RH  048%=      5-min Rain = 0
KTAS 141610Z 04013KT 29/17 A3022 RMK A01 T02880166  RH  048%=      5-min Rain = 0
KTAS 141611Z 04012KT 29/16 A3022 RMK A01 T02880163  RH  047%=      5-min Rain = 0
KTAS 141612Z 03011KT 29/16 A3022 RMK A01 T02870163  RH  047%=      5-min Rain = 0
KTAS 141613Z 04012KT 29/16 A3022 RMK A01 T02890164  RH  047%=      5-min Rain = 0
KTAS 141614Z 04011KT 29/16 A3022 RMK A01 T02920164  RH  046%=      5-min Rain = 0
KTAS 141615Z 04013KT 29/16 A3022 RMK A01 T02920164  RH  046%=      5-min Rain = 0
KTAS 141616Z 06012KT 29/16 A3022 RMK A01 T02900162  RH  046%=      5-min Rain = 0
KTAS 141617Z 06012KT 29/16 A3022 RMK A01 T02900163  RH  046%=      5-min Rain = 0
KTAS 141618Z 05010KT 29/17 A3022 RMK A01 T02900165  RH  047%=      5-min Rain = 0
KTAS 141619Z 05012KT 29/16 A3022 RMK A01 T02920164  RH  046%=      5-min Rain = 0
KTAS 141620Z 04011KT 29/17 A3022 RMK A01 T02930165  RH  046%=      5-min Rain = 0
KTAS 141621Z 05012KT 29/17 A3021 RMK A01 T02940166  RH  046%=      5-min Rain = 0
KTAS 141622Z 05013KT 29/16 A3021 RMK A01 T02930164  RH  046%=      5-min Rain = 0
KTAS 141623Z 05011KT 29/16 A3021 RMK A01 T02910162  RH  046%=      5-min Rain = 0
KTAS 141624Z 05010KT 29/16 A3021 RMK A01 T02920164  RH  046%=      5-min Rain = 0
KTAS 141625Z 04014KT 29/16 A3021 RMK A01 T02940164  RH  045%=      5-min Rain = 0
KTAS 141626Z 03013KT 29/16 A3021 RMK A01 T02920160  RH  045%=      5-min Rain = 0
KTAS 141627Z 03014KT 29/16 A3021 RMK A01 T02910162  RH  045%=      5-min Rain = 0
KTAS 141628Z 03011KT 29/16 A3021 RMK A01 T02930162  RH  045%=      5-min Rain = 0
KTAS 141629Z 02010KT 30/16 A3021 RMK A01 T02950164  RH  045%=      5-min Rain = 0
KTAS 141630Z 02015KT 30/16 A3021 RMK A01 T02980164  RH  044%=      5-min Rain = 0
KTAS 141631Z 03011KT 30/16 A3021 RMK A01 T02970163  RH  044%=      5-min Rain = 0
KTAS 141632Z 03010G15KT 30/17 A3021 RMK A01 T02980166  RH  045%=      5-min Rain = 0
KTAS 141633Z 02013KT 30/16 A3021 RMK A01 T03020164  RH  044%=      5-min Rain = 0
KTAS 141634Z 03014KT 30/16 A3022 RMK A01 T03040163  RH  043%=      5-min Rain = 0
KTAS 141635Z 03011KT 30/16 A3021 RMK A01 T03010160  RH  043%=      5-min Rain = 0
KTAS 141636Z 03011G16KT 30/16 A3021 RMK A01 T02990158  RH  043%=      5-min Rain = 0
KTAS 141637Z 02014KT 30/16 A3021 RMK A01 T02990160  RH  043%=      5-min Rain = 0
KTAS 141638Z 03014KT 30/16 A3021 RMK A01 T03000162  RH  043%=      5-min Rain = 0
KTAS 141639Z 03012KT 30/16 A3021 RMK A01 T03020162  RH  043%=      5-min Rain = 0
KTAS 141640Z 02013KT 30/16 A3021 RMK A01 T03040163  RH  043%=      5-min Rain = 0
KTAS 141641Z 05012KT 31/16 A3021 RMK A01 T03050164  RH  043%=      5-min Rain = 0
KTAS 141642Z 04014KT 30/16 A3021 RMK A01 T03010162  RH  043%=      5-min Rain = 0
KTAS 141643Z 04015KT 30/16 A3021 RMK A01 T02990158  RH  042%=      5-min Rain = 0
KTAS 141644Z 03015KT 30/16 A3021 RMK A01 T02990159  RH  043%=      5-min Rain = 0
KTAS 141645Z 03014KT 30/16 A3021 RMK A01 T03000160  RH  043%=      5-min Rain = 0
KTAS 141646Z 03014KT 30/16 A3021 RMK A01 T03010161  RH  043%=      5-min Rain = 0
KTAS 141647Z 04013G18KT 30/16 A3021 RMK A01 T02980159  RH  043%=      5-min Rain = 0
KTAS 141648Z 02014KT 30/16 A3021 RMK A01 T02980157  RH  043%=      5-min Rain = 0
KTAS 141649Z 04013KT 30/16 A3021 RMK A01 T02990159  RH  043%=      5-min Rain = 0
KTAS 141650Z 02012KT 30/16 A3021 RMK A01 T03010161  RH  043%=      5-min Rain = 0
KTAS 141651Z 04013KT 31/16 A3021 RMK A01 T03050160  RH  042%=      5-min Rain = 0
KTAS 141652Z 05014KT 30/16 A3021 RMK A01 T03040161  RH  042%=      5-min Rain = 0
KTAS 141653Z 03014KT 30/16 A3021 RMK A01 T03030160  RH  042%=      5-min Rain = 0
KTAS 141654Z 03014KT 30/16 A3021 RMK A01 T03020160  RH  042%=      5-min Rain = 0
KTAS 141655Z 03013KT 30/16 A3021 RMK A01 T03030160  RH  042%=      5-min Rain = 0
KTAS 141656Z 04013KT 30/16 A3021 RMK A01 T03030160  RH  042%=      5-min Rain = 0
KTAS 141657Z 03013KT 30/16 A3021 RMK A01 T03030159  RH  042%=      5-min Rain = 0
KTAS 141658Z 04011KT 30/16 A3021 RMK A01 T03030160  RH  042%=      5-min Rain = 0
KTAS 141659Z 05010KT 31/16 A3021 RMK A01 T03050161  RH  042%=      5-min Rain = 0
KTAS 141700Z 04010KT 30/16 A3021 RMK A01 T03030160  RH  042%=      5-min Rain = 0
KTAS 141701Z 05012KT 30/16 A302 RMK A01 T03040163  RH  043%=      5-min Rain = 0
KTAS 141702Z 05014KT 31/16 A302 RMK A01 T03070163  RH  042%=      5-min Rain = 0
KTAS 141703Z 06014KT 31/16 A302 RMK A01 T03050160  RH  041%=      5-min Rain = 0
KTAS 141704Z 06014G19KT 30/16 A302 RMK A01 T03040158  RH  041%=      5-min Rain = 0
KTAS 141705Z 06016KT 30/16 A302 RMK A01 T03020156  RH  041%=      5-min Rain = 0
KTAS 141706Z 06010KT 30/15 A302 RMK A01 T02990154  RH  041%=      5-min Rain = 0
KTAS 141707Z 07016G22KT 30/16 A302 RMK A01 T03010156  RH  041%=      5-min Rain = 0
KTAS 141708Z 07014KT 30/15 A302 RMK A01 T03030154  RH  040%=      5-min Rain = 0
KTAS 141709Z 06016KT 30/15 A302 RMK A01 T03040154  RH  040%=      5-min Rain = 0
KTAS 141710Z 06014KT 30/16 A302 RMK A01 T03030155  RH  041%=      5-min Rain = 0
KTAS 141711Z 06014KT 31/15 A3019 RMK A01 T03060154  RH  040%=      5-min Rain = 0
KTAS 141712Z 05014KT 31/15 A3019 RMK A01 T03060153  RH  040%=      5-min Rain = 0
KTAS 141713Z 05010KT 31/15 A3019 RMK A01 T03050154  RH  040%=      5-min Rain = 0
KTAS 141714Z 04011KT 31/16 A3019 RMK A01 T03060156  RH  040%=      5-min Rain = 0
KTAS 141715Z 05010KT 31/16 A3019 RMK A01 T03050156  RH  041%=      5-min Rain = 0
KTAS 141716Z 07013KT 31/16 A3019 RMK A01 T03080158  RH  040%=      5-min Rain = 0
KTAS 141717Z 06012KT 31/16 A3019 RMK A01 T03080158  RH  040%=      5-min Rain = 0
KTAS 141718Z 07012KT 31/16 A3019 RMK A01 T03110159  RH  040%=      5-min Rain = 0
KTAS 141719Z 06013KT 31/15 A3019 RMK A01 T03120151  RH  038%=      5-min Rain = 0
KTAS 141720Z 06013G18KT 31/15 A3019 RMK A01 T03110150  RH  038%=      5-min Rain = 0
KTAS 141721Z 06012KT 31/15 A3019 RMK A01 T03120153  RH  038%=      5-min Rain = 0
KTAS 141722Z 06014KT 31/15 A3019 RMK A01 T03130151  RH  037%=      5-min Rain = 0
KTAS 141723Z 05012KT 31/15 A3019 RMK A01 T03120152  RH  038%=      5-min Rain = 0
KTAS 141724Z 04012KT 31/15 A3019 RMK A01 T03120150  RH  037%=      5-min Rain = 0
KTAS 141725Z 05014KT 31/15 A3019 RMK A01 T03130152  RH  038%=      5-min Rain = 0
KTAS 141726Z 04011KT 31/15 A3019 RMK A01 T03110154  RH  038%=      5-min Rain = 0
KTAS 141727Z 05012G17KT 32/16 A3018 RMK A01 T03150160  RH  039%=      5-min Rain = 0
KTAS 141728Z 08012KT 32/16 A3018 RMK A01 T03170162  RH  039%=      5-min Rain = 0
KTAS 141729Z 08012KT 32/16 A3018 RMK A01 T03200163  RH  039%=      5-min Rain = 0
KTAS 141730Z 08013KT 32/16 A3018 RMK A01 T03190161  RH  039%=      5-min Rain = 0
KTAS 141731Z 08015G20KT 32/16 A3018 RMK A01 T03170157  RH  038%=      5-min Rain = 0
KTAS 141732Z 07013G18KT 32/16 A3018 RMK A01 T03180156  RH  038%=      5-min Rain = 0
KTAS 141733Z 06015KT 32/15 A3018 RMK A01 T03200150  RH  036%=      5-min Rain = 0
KTAS 141734Z 07014KT 32/15 A3018 RMK A01 T03170148  RH  036%=      5-min Rain = 0
KTAS 141735Z 08015G21KT 32/15 A3018 RMK A01 T03160149  RH  036%=      5-min Rain = 0
KTAS 141736Z 08012KT 32/15 A3018 RMK A01 T03150146  RH  036%=      5-min Rain = 0
KTAS 141737Z 05014KT 32/15 A3018 RMK A01 T03150151  RH  037%=      5-min Rain = 0
KTAS 141738Z 05014KT 32/15 A3018 RMK A01 T03160151  RH  037%=      5-min Rain = 0
KTAS 141739Z 04012KT 32/15 A3018 RMK A01 T03150149  RH  037%=      5-min Rain = 0
KTAS 141740Z 06011KT 31/15 A3018 RMK A01 T03140152  RH  037%=      5-min Rain = 0
KTAS 141741Z 09014G21KT 32/15 A3018 RMK A01 T03190154  RH  037%=      5-min Rain = 0
KTAS 141742Z 08015KT 32/15 A3018 RMK A01 T03180154  RH  037%=      5-min Rain = 0
KTAS 141743Z 08012KT 32/16 A3018 RMK A01 T03170156  RH  038%=      5-min Rain = 0
KTAS 141744Z 08013KT 32/16 A3018 RMK A01 T03160157  RH  038%=      5-min Rain = 0
KTAS 141745Z 07013KT 32/16 A3018 RMK A01 T03190156  RH  038%=      5-min Rain = 0
KTAS 141746Z 08013KT 32/15 A3018 RMK A01 T03170154  RH  037%=      5-min Rain = 0
KTAS 141747Z 09014G20KT 32/15 A3017 RMK A01 T03170153  RH  037%=      5-min Rain = 0
KTAS 141748Z 08015KT 32/15 A3017 RMK A01 T03160151  RH  037%=      5-min Rain = 0
KTAS 141749Z 06016KT 31/15 A3017 RMK A01 T03140154  RH  038%=      5-min Rain = 0
KTAS 141750Z 06013G18KT 31/15 A3017 RMK A01 T03130153  RH  038%=      5-min Rain = 0
KTAS 141751Z 08011G16KT 31/16 A3017 RMK A01 T03140156  RH  039%=      5-min Rain = 0
KTAS 141752Z 10014KT 32/16 A3017 RMK A01 T03200160  RH  038%=      5-min Rain = 0
KTAS 141753Z 10015KT 32/16 A3017 RMK A01 T03200162  RH  039%=      5-min Rain = 0
KTAS 141754Z 09013KT 32/16 A3017 RMK A01 T03200163  RH  039%=      5-min Rain = 0
KTAS 141755Z 09014KT 32/16 A3017 RMK A01 T03220162  RH  038%=      5-min Rain = 0
KTAS 141756Z 08014KT 32/16 A3017 RMK A01 T03220163  RH  038%=      5-min Rain = 0
KTAS 141757Z 08013KT 32/16 A3017 RMK A01 T03220164  RH  039%=      5-min Rain = 0
KTAS 141758Z 09010KT 32/16 A3017 RMK A01 T03210164  RH  039%=      5-min Rain = 0
KTAS 141759Z 09017KT 32/16 A3017 RMK A01 T03190163  RH  039%=      5-min Rain = 0
KTAS 141800Z 08015KT 32/16 A3017 RMK A01 T03190157  RH  038%=      5-min Rain = 0
KTAS 141801Z 07011KT 32/16 A3017 RMK A01 T03170158  RH  038%=      5-min Rain = 0
KTAS 141802Z 06009KT 31/16 A3017 RMK A01 T03130157  RH  039%=      5-min Rain = 0
KTAS 141803Z 06010KT 31/16 A3017 RMK A01 T03140160  RH  040%=      5-min Rain = 0
KTAS 141804Z 09011KT 32/16 A3017 RMK A01 T03170160  RH  039%=      5-min Rain = 0
KTAS 141805Z 08013KT 32/16 A3017 RMK A01 T03190161  RH  039%=      5-min Rain = 0
KTAS 141806Z 07013KT 33/16 A3017 RMK A01 T03280157  RH  036%=      5-min Rain = 0
KTAS 141807Z 08018KT 33/15 A3017 RMK A01 T03280150  RH  034%=      5-min Rain = 0
KTAS 141808Z 07013KT 32/15 A3017 RMK A01 T03240149  RH  035%=      5-min Rain = 0
KTAS 141809Z 08012KT 33/15 A3017 RMK A01 T03260152  RH  035%=      5-min Rain = 0
KTAS 141810Z 08011G16KT 32/15 A3017 RMK A01 T03240154  RH  036%=      5-min Rain = 0
KTAS 141811Z 08010KT 32/15 A3017 RMK A01 T03230154  RH  036%=      5-min Rain = 0
KTAS 141812Z 09012KT 32/15 A3017 RMK A01 T03240152  RH  035%=      5-min Rain = 0
KTAS 141813Z 09013KT 33/15 A3017 RMK A01 T03270149  RH  034%=      5-min Rain = 0
KTAS 141814Z 08015KT 33/15 A3017 RMK A01 T03300147  RH  033%=      5-min Rain = 0
KTAS 141815Z 07014KT 33/15 A3017 RMK A01 T03300146  RH  033%=      5-min Rain = 0
KTAS 141816Z 06014KT 33/14 A3017 RMK A01 T03250144  RH  033%=      5-min Rain = 0
KTAS 141817Z 07012KT 32/14 A3017 RMK A01 T03220143  RH  034%=      5-min Rain = 0
KTAS 141818Z 06011KT 33/14 A3017 RMK A01 T03260144  RH  033%=      5-min Rain = 0
KTAS 141819Z 06013KT 33/14 A3016 RMK A01 T03270141  RH  033%=      5-min Rain = 0
KTAS 141820Z 07012KT 32/14 A3016 RMK A01 T03240140  RH  033%=      5-min Rain = 0
KTAS 141821Z 06012G17KT 32/14 A3016 RMK A01 T03240142  RH  033%=      5-min Rain = 0
KTAS 141822Z 07015KT 33/14 A3016 RMK A01 T03260142  RH  033%=      5-min Rain = 0
KTAS 141823Z 08013KT 33/14 A3016 RMK A01 T03250144  RH  033%=      5-min Rain = 0
KTAS 141824Z 08012KT 33/15 A3016 RMK A01 T03270146  RH  034%=      5-min Rain = 0
KTAS 141825Z 08010KT 33/15 A3016 RMK A01 T03260145  RH  034%=      5-min Rain = 0
KTAS 141826Z 09008KT 33/15 A3016 RMK A01 T03290149  RH  034%=      5-min Rain = 0
KTAS 141827Z 08014G19KT 33/15 A3016 RMK A01 T03310147  RH  033%=      5-min Rain = 0
KTAS 141828Z 09014G19KT 33/14 A3016 RMK A01 T03300140  RH  032%=      5-min Rain = 0
KTAS 141829Z 07016KT 33/14 A3016 RMK A01 T03300136  RH  031%=      5-min Rain = 0
KTAS 141830Z 06012KT 33/14 A3016 RMK A01 T03280137  RH  032%=      5-min Rain = 0
KTAS 141831Z 07013KT 33/14 A3016 RMK A01 T03300140  RH  032%=      5-min Rain = 0
KTAS 141832Z 08015KT 33/14 A3016 RMK A01 T03320142  RH  032%=      5-min Rain = 0
KTAS 141833Z 08014KT 33/14 A3016 RMK A01 T03300140  RH  032%=      5-min Rain = 0
KTAS 141834Z 09014KT 33/14 A3016 RMK A01 T03270138  RH  032%=      5-min Rain = 0
KTAS 141835Z 07009KT 33/14 A3016 RMK A01 T03300143  RH  032%=      5-min Rain = 0
KTAS 141836Z 06011KT 33/14 A3016 RMK A01 T03330141  RH  032%=      5-min Rain = 0
KTAS 141837Z 09011G16KT 33/14 A3016 RMK A01 T03340144  RH  032%=      5-min Rain = 0
KTAS 141838Z 10011KT 33/15 A3016 RMK A01 T03320145  RH  033%=      5-min Rain = 0
KTAS 141839Z 09013G18KT 33/14 A3016 RMK A01 T03310143  RH  032%=      5-min Rain = 0
KTAS 141840Z 08015G20KT 33/14 A3016 RMK A01 T03340137  RH  030%=      5-min Rain = 0
KTAS 141841Z 08015KT 33/14 A3016 RMK A01 T03340135  RH  030%=      5-min Rain = 0
KTAS 141842Z 07011KT 33/13 A3016 RMK A01 T03320131  RH  030%=      5-min Rain = 0
KTAS 141843Z 05012KT 33/13 A3016 RMK A01 T03310133  RH  030%=      5-min Rain = 0
KTAS 141844Z 05011KT 33/14 A3016 RMK A01 T03330137  RH  031%=      5-min Rain = 0
KTAS 141845Z 05011KT 34/14 A3015 RMK A01 T03370138  RH  030%=      5-min Rain = 0
KTAS 141846Z 05010KT 34/14 A3016 RMK A01 T03390137  RH  030%=      5-min Rain = 0
KTAS 141847Z 06010KT 34/13 A3016 RMK A01 T03380134  RH  029%=      5-min Rain = 0
KTAS 141848Z 11010KT 34/14 A3016 RMK A01 T03360136  RH  030%=      5-min Rain = 0
KTAS 141849Z 07009G15KT 34/13 A3016 RMK A01 T03400133  RH  029%=      5-min Rain = 0
KTAS 141850Z 07009KT 34/13 A3016 RMK A01 T03420132  RH  028%=      5-min Rain = 0
KTAS 141851Z 09013G18KT 34/13 A3016 RMK A01 T03410134  RH  029%=      5-min Rain = 0
KTAS 141852Z 07011KT 34/14 A3016 RMK A01 T03430135  RH  029%=      5-min Rain = 0
KTAS 141853Z 05011KT 34/13 A3016 RMK A01 T03400134  RH  029%=      5-min Rain = 0
KTAS 141854Z 07009KT 34/13 A3016 RMK A01 T03380134  RH  029%=      5-min Rain = 0
KTAS 141855Z 08014KT 34/13 A3016 RMK A01 T03390132  RH  029%=      5-min Rain = 0
KTAS 141856Z 09013G18KT 34/13 A3016 RMK A01 T03420134  RH  029%=      5-min Rain = 0
KTAS 141857Z 08013KT 34/13 A3016 RMK A01 T03440131  RH  028%=      5-min Rain = 0
KTAS 141858Z 08012KT 34/13 A3016 RMK A01 T03430132  RH  028%=      5-min Rain = 0
KTAS 141859Z 08011KT 34/13 A3016 RMK A01 T03420131  RH  028%=      5-min Rain = 0
KTAS 141900Z 09013KT 34/13 A3016 RMK A01 T03430127  RH  027%=      5-min Rain = 0
KTAS 141901Z 09011KT 34/13 A3015 RMK A01 T03410126  RH  027%=      5-min Rain = 0
KTAS 141902Z 10012KT 34/12 A3015 RMK A01 T03420124  RH  027%=      5-min Rain = 0
KTAS 141903Z 08011KT 34/13 A3015 RMK A01 T03430129  RH  027%=      5-min Rain = 0
KTAS 141904Z 08010KT 35/13 A3015 RMK A01 T03450129  RH  027%=      5-min Rain = 0
KTAS 141905Z 07012G18KT 34/13 A3015 RMK A01 T03440128  RH  027%=      5-min Rain = 0
KTAS 141906Z 06015KT 34/12 A3015 RMK A01 T03420117  RH  025%=      5-min Rain = 0
KTAS 141907Z 05015KT 34/12 A3015 RMK A01 T03420119  RH  026%=      5-min Rain = 0
KTAS 141908Z 07015KT 34/12 A3015 RMK A01 T03420115  RH  025%=      5-min Rain = 0
KTAS 141909Z 07012KT 34/12 A3015 RMK A01 T03390116  RH  026%=      5-min Rain = 0
KTAS 141910Z 06014KT 34/12 A3015 RMK A01 T03410119  RH  026%=      5-min Rain = 0
KTAS 141911Z 06017G24KT 34/12 A3015 RMK A01 T03420122  RH  026%=      5-min Rain = 0
KTAS 141912Z 07013G18KT 35/13 A3016 RMK A01 T03460125  RH  026%=      5-min Rain = 0
KTAS 141913Z 05014KT 35/11 A3016 RMK A01 T03470113  RH  024%=      5-min Rain = 0
KTAS 141914Z 05013KT 34/11 A3016 RMK A01 T03420111  RH  025%=      5-min Rain = 0
KTAS 141915Z 05012KT 34/11 A3016 RMK A01 T03400114  RH  025%=      5-min Rain = 0
KTAS 141916Z 09013KT 34/12 A3016 RMK A01 T03380118  RH  026%=      5-min Rain = 0
KTAS 141917Z 09011KT 34/12 A3015 RMK A01 T03400122  RH  027%=      5-min Rain = 0
KTAS 141918Z 10010KT 35/13 A3015 RMK A01 T03450125  RH  026%=      5-min Rain = 0
KTAS 141919Z 08014G19KT 35/13 A3015 RMK A01 T03460127  RH  027%=      5-min Rain = 0
KTAS 141920Z 08011KT 35/13 A3015 RMK A01 T03450126  RH  027%=      5-min Rain = 0
KTAS 141921Z 08010KT 34/13 A3015 RMK A01 T03440129  RH  027%=      5-min Rain = 0
KTAS 141922Z 08012KT 35/13 A3015 RMK A01 T03480133  RH  027%=      5-min Rain = 0
KTAS 141923Z 07011G16KT 35/13 A3015 RMK A01 T03480131  RH  027%=      5-min Rain = 0
KTAS 141924Z 08015KT 35/13 A3015 RMK A01 T03480128  RH  027%=      5-min Rain = 0
KTAS 141925Z 08011KT 35/13 A3015 RMK A01 T03480127  RH  026%=      5-min Rain = 0
KTAS 141926Z 06010G15KT 35/13 A3015 RMK A01 T03460127  RH  027%=      5-min Rain = 0
KTAS 141927Z 05008KT 35/13 A3015 RMK A01 T03460130  RH  027%=      5-min Rain = 0
KTAS 141928Z 05009KT 35/13 A3015 RMK A01 T03460128  RH  027%=      5-min Rain = 0
KTAS 141929Z 06009KT 35/13 A3015 RMK A01 T03450128  RH  027%=      5-min Rain = 0
KTAS 141930Z 08014G19KT 35/13 A3015 RMK A01 T03460128  RH  027%=      5-min Rain = 0
KTAS 141931Z 08011KT 35/13 A3015 RMK A01 T03470126  RH  026%=      5-min Rain = 0
KTAS 141932Z 09009KT 35/13 A3015 RMK A01 T03490125  RH  026%=      5-min Rain = 0
KTAS 141933Z 08009KT 35/13 A3015 RMK A01 T03490125  RH  026%=      5-min Rain = 0
KTAS 141934Z 04011G16KT 35/13 A3015 RMK A01 T03510126  RH  026%=      5-min Rain = 0
KTAS 141935Z 06014KT 35/12 A3015 RMK A01 T03510118  RH  024%=      5-min Rain = 0
KTAS 141936Z 06009KT 35/12 A3015 RMK A01 T03450115  RH  025%=      5-min Rain = 0
KTAS 141937Z 05013KT 34/11 A3015 RMK A01 T03440114  RH  025%=      5-min Rain = 0
KTAS 141938Z 04013KT 35/12 A3015 RMK A01 T03460116  RH  025%=      5-min Rain = 0
KTAS 141939Z 05012KT 35/12 A3015 RMK A01 T03480121  RH  025%=      5-min Rain = 0
KTAS 141940Z 06013KT 35/12 A3015 RMK A01 T03500124  RH  026%=      5-min Rain = 0
KTAS 141941Z 05013KT 35/12 A3014 RMK A01 T03520122  RH  025%=      5-min Rain = 0
KTAS 141942Z 05009KT 35/13 A3014 RMK A01 T03520125  RH  025%=      5-min Rain = 0
KTAS 141943Z 06013G19KT 36/12 A3014 RMK A01 T03560123  RH  025%=      5-min Rain = 0
KTAS 141944Z 07014KT 35/11 A3014 RMK A01 T03530109  RH  023%=      5-min Rain = 0
KTAS 141945Z 05015G20KT 35/11 A3014 RMK A01 T03510113  RH  024%=      5-min Rain = 0
KTAS 141946Z 05012KT 35/11 A3014 RMK A01 T03490114  RH  024%=      5-min Rain = 0
KTAS 141947Z 04012KT 35/12 A3014 RMK A01 T03490116  RH  024%=      5-min Rain = 0
KTAS 141948Z 05010G15KT 35/12 A3014 RMK A01 T03480117  RH  025%=      5-min Rain = 0
KTAS 141949Z 07014KT 35/12 A3014 RMK A01 T03480116  RH  024%=      5-min Rain = 0
KTAS 141950Z 07017G22KT 35/12 A3014 RMK A01 T03510116  RH  024%=      5-min Rain = 0
KTAS 141951Z 05014KT 35/12 A3014 RMK A01 T03510115  RH  024%=      5-min Rain = 0
KTAS 141952Z 04013KT 35/12 A3014 RMK A01 T03520117  RH  024%=      5-min Rain = 0
KTAS 141953Z 05011KT 35/12 A3014 RMK A01 T03510116  RH  024%=      5-min Rain = 0
KTAS 141954Z 05012KT 35/12 A3014 RMK A01 T03500116  RH  024%=      5-min Rain = 0
KTAS 141955Z 06013KT 35/12 A3014 RMK A01 T03510116  RH  024%=      5-min Rain = 0
KTAS 141956Z 06012KT 35/11 A3014 RMK A01 T03530111  RH  023%=      5-min Rain = 0
KTAS 141957Z 07012KT 35/11 A3014 RMK A01 T03530114  RH  024%=      5-min Rain = 0
KTAS 141958Z 07016KT 36/12 A3014 RMK A01 T03550115  RH  023%=      5-min Rain = 0
KTAS 141959Z 07015KT 35/11 A3014 RMK A01 T03530114  RH  023%=      5-min Rain = 0
KTAS 142000Z 07013KT 35/11 A3014 RMK A01 T03500114  RH  024%=      5-min Rain = 0
KTAS 142001Z 07008KT 35/11 A3014 RMK A01 T03470112  RH  024%=      5-min Rain = 0
KTAS 142002Z 09007KT 35/12 A3014 RMK A01 T03500116  RH  024%=      5-min Rain = 0
KTAS 142003Z 08012KT 36/12 A3013 RMK A01 T03560117  RH  024%=      5-min Rain = 0
KTAS 142004Z 06013KT 36/12 A3013 RMK A01 T03550118  RH  024%=      5-min Rain = 0
KTAS 142005Z 08012KT 36/12 A3013 RMK A01 T03570117  RH  024%=      5-min Rain = 0
KTAS 142006Z 07014KT 35/11 A3013 RMK A01 T03540113  RH  023%=      5-min Rain = 0
KTAS 142007Z 06010KT 35/11 A3013 RMK A01 T03530111  RH  023%=      5-min Rain = 0
KTAS 142008Z 08010KT 35/11 A3013 RMK A01 T03540112  RH  023%=      5-min Rain = 0
KTAS 142009Z 08010KT 36/11 A3013 RMK A01 T03550111  RH  023%=      5-min Rain = 0
KTAS 142010Z 06012KT 36/11 A3013 RMK A01 T03570112  RH  023%=      5-min Rain = 0
KTAS 142011Z 05011G17KT 36/11 A3013 RMK A01 T03560110  RH  023%=      5-min Rain = 0
KTAS 142012Z 09013KT 36/11 A3013 RMK A01 T03570111  RH  023%=      5-min Rain = 0
KTAS 142013Z 07013KT 36/11 A3013 RMK A01 T03570109  RH  022%=      5-min Rain = 0
KTAS 142014Z 05014KT 36/11 A3013 RMK A01 T03550114  RH  023%=      5-min Rain = 0
KTAS 142015Z 04010KT 35/11 A3013 RMK A01 T03530108  RH  023%=      5-min Rain = 0
KTAS 142016Z 04011KT 35/11 A3013 RMK A01 T03520111  RH  023%=      5-min Rain = 0
KTAS 142017Z 04016KT 35/11 A3013 RMK A01 T03540112  RH  023%=      5-min Rain = 0
KTAS 142018Z 07012KT 35/11 A3013 RMK A01 T03540114  RH  023%=      5-min Rain = 0
KTAS 142019Z 05011KT 36/11 A3013 RMK A01 T03580113  RH  023%=      5-min Rain = 0
KTAS 142020Z 06008KT 36/11 A3013 RMK A01 T03600108  RH  022%=      5-min Rain = 0
KTAS 142021Z 07008KT 36/10 A3012 RMK A01 T03610103  RH  021%=      5-min Rain = 0
KTAS 142022Z 06010KT 36/10 A3012 RMK A01 T03580104  RH  021%=      5-min Rain = 0
KTAS 142023Z 07013KT 36/11 A3012 RMK A01 T03580112  RH  023%=      5-min Rain = 0
KTAS 142024Z 08014KT 36/11 A3012 RMK A01 T03580111  RH  022%=      5-min Rain = 0
KTAS 142025Z 07013KT 36/11 A3012 RMK A01 T03550111  RH  023%=      5-min Rain = 0
KTAS 142026Z 05007KT 35/11 A3012 RMK A01 T03540111  RH  023%=      5-min Rain = 0
KTAS 142027Z 02010KT 36/11 A3012 RMK A01 T03560109  RH  022%=      5-min Rain = 0
KTAS 142028Z 04008KT 36/11 A3012 RMK A01 T03570106  RH  022%=      5-min Rain = 0
KTAS 142029Z 05008KT 36/11 A3012 RMK A01 T03550106  RH  022%=      5-min Rain = 0
KTAS 142030Z 05011KT 36/11 A3012 RMK A01 T03550113  RH  023%=      5-min Rain = 0
KTAS 142031Z 04008KT 35/11 A3012 RMK A01 T03540114  RH  023%=      5-min Rain = 0
KTAS 142032Z 05009KT 36/11 A3011 RMK A01 T03570114  RH  023%=      5-min Rain = 0
KTAS 142033Z 05011KT 36/12 A3011 RMK A01 T03570118  RH  024%=      5-min Rain = 0
KTAS 142034Z 06013KT 36/12 A3011 RMK A01 T03600120  RH  024%=      5-min Rain = 0
KTAS 142035Z 07011G19KT 36/12 A3011 RMK A01 T03580116  RH  023%=      5-min Rain = 0
KTAS 142036Z 06010KT 36/12 A3011 RMK A01 T03600118  RH  023%=      5-min Rain = 0
KTAS 142037Z 07014KT 36/12 A3011 RMK A01 T03610117  RH  023%=      5-min Rain = 0
KTAS 142038Z 05013KT 36/12 A3011 RMK A01 T03570115  RH  023%=      5-min Rain = 0
KTAS 142039Z 05009KT 36/12 A3011 RMK A01 T03560115  RH  023%=      5-min Rain = 0
KTAS 142040Z 07011G17KT 36/11 A3011 RMK A01 T03560114  RH  023%=      5-min Rain = 0
KTAS 142041Z 07007KT 35/11 A3011 RMK A01 T03530113  RH  023%=      5-min Rain = 0
KTAS 142042Z 09006G11KT 35/11 A3011 RMK A01 T03530113  RH  023%=      5-min Rain = 0
KTAS 142043Z 07007KT 35/12 A3011 RMK A01 T03540115  RH  024%=      5-min Rain = 0
KTAS 142044Z 08008KT 36/11 A3011 RMK A01 T03560112  RH  023%=      5-min Rain = 0
KTAS 142045Z 08015G20KT 36/11 A301 RMK A01 T03580114  RH  023%=      5-min Rain = 0
KTAS 142046Z 08015G20KT 36/12 A301 RMK A01 T03560115  RH  023%=      5-min Rain = 0
KTAS 142047Z 08012KT 36/12 A301 RMK A01 T03550115  RH  024%=      5-min Rain = 0
KTAS 142048Z 09012G17KT 36/12 A301 RMK A01 T03560118  RH  024%=      5-min Rain = 0
KTAS 142049Z 10011KT 36/12 A301 RMK A01 T03580117  RH  023%=      5-min Rain = 0
KTAS 142050Z 07016KT 36/12 A301 RMK A01 T03590117  RH  023%=      5-min Rain = 0
KTAS 142051Z 07014KT 36/11 A301 RMK A01 T03550114  RH  023%=      5-min Rain = 0
KTAS 142052Z 05010KT 35/12 A301 RMK A01 T03520115  RH  024%=      5-min Rain = 0
KTAS 142053Z 05011KT 35/12 A301 RMK A01 T03510115  RH  024%=      5-min Rain = 0
KTAS 142054Z 06012G18KT 35/11 A301 RMK A01 T03510114  RH  024%=      5-min Rain = 0
KTAS 142055Z 07014KT 35/11 A301 RMK A01 T03530113  RH  023%=      5-min Rain = 0
KTAS 142056Z 08009KT 35/11 A301 RMK A01 T03520111  RH  023%=      5-min Rain = 0
KTAS 142057Z 07008KT 35/12 A301 RMK A01 T03540115  RH  024%=      5-min Rain = 0
KTAS 142058Z 08007KT 36/12 A301 RMK A01 T03600116  RH  023%=      5-min Rain = 0
KTAS 142059Z 08007KT 36/11 A301 RMK A01 T03620113  RH  022%=      5-min Rain = 0
KTAS 142100Z 06013KT 36/12 A301 RMK A01 T03620115  RH  023%=      5-min Rain = 0
KTAS 142101Z 07014KT 36/12 A301 RMK A01 T03600117  RH  023%=      5-min Rain = 0
KTAS 142102Z 06013KT 36/12 A301 RMK A01 T03570117  RH  023%=      5-min Rain = 0
KTAS 142103Z 06008KT 36/12 A301 RMK A01 T03560120  RH  024%=      5-min Rain = 0
KTAS 142104Z 05009KT 36/12 A301 RMK A01 T03590121  RH  024%=      5-min Rain = 0
KTAS 142105Z 04009KT 36/12 A301 RMK A01 T03580118  RH  024%=      5-min Rain = 0
KTAS 142106Z 05010KT 36/12 A301 RMK A01 T03550117  RH  024%=      5-min Rain = 0
KTAS 142107Z 08009KT 35/12 A301 RMK A01 T03530118  RH  024%=      5-min Rain = 0
KTAS 142108Z 09011KT 36/12 A3009 RMK A01 T03560118  RH  024%=      5-min Rain = 0
KTAS 142109Z 11012KT 36/12 A3009 RMK A01 T03550118  RH  024%=      5-min Rain = 0
KTAS 142110Z 11012G17KT 36/12 A3009 RMK A01 T03550119  RH  024%=      5-min Rain = 0
KTAS 142111Z 04009KT 36/12 A3009 RMK A01 T03560120  RH  024%=      5-min Rain = 0
KTAS 142112Z 08006KT 36/12 A3009 RMK A01 T03580121  RH  024%=      5-min Rain = 0
KTAS 142113Z 08012KT 36/12 A3009 RMK A01 T03620124  RH  024%=      5-min Rain = 0
KTAS 142114Z 08012KT 37/12 A3009 RMK A01 T03650121  RH  023%=      5-min Rain = 0
KTAS 142115Z 06015KT 36/12 A3009 RMK A01 T03610120  RH  023%=      5-min Rain = 0
KTAS 142116Z 05015KT 36/12 A3009 RMK A01 T03560118  RH  024%=      5-min Rain = 0
KTAS 142117Z 06010KT 35/12 A3009 RMK A01 T03530119  RH  024%=      5-min Rain = 0
KTAS 142118Z 08012KT 36/12 A3009 RMK A01 T03570121  RH  024%=      5-min Rain = 0
KTAS 142119Z 07011KT 36/12 A3009 RMK A01 T03570116  RH  023%=      5-min Rain = 0
KTAS 142120Z 08009G17KT 35/12 A3009 RMK A01 T03520115  RH  024%=      5-min Rain = 0
KTAS 142121Z 09014KT 35/12 A3009 RMK A01 T03540115  RH  024%=      5-min Rain = 0
KTAS 142122Z 10012KT 35/12 A3009 RMK A01 T03540115  RH  024%=      5-min Rain = 0
KTAS 142123Z 10012G17KT 35/12 A3009 RMK A01 T03530116  RH  024%=      5-min Rain = 0
KTAS 142124Z 09010KT 35/12 A3009 RMK A01 T03530115  RH  024%=      5-min Rain = 0
KTAS 142125Z 09009KT 35/12 A3009 RMK A01 T03530116  RH  024%=      5-min Rain = 0
KTAS 142126Z 10008KT 36/12 A3009 RMK A01 T03550116  RH  024%=      5-min Rain = 0
KTAS 142127Z 13004KT 36/12 A3009 RMK A01 T03550116  RH  024%=      5-min Rain = 0
KTAS 142128Z 12007KT 36/12 A3009 RMK A01 T03570115  RH  023%=      5-min Rain = 0
KTAS 142129Z 11004KT 36/12 A3008 RMK A01 T03580117  RH  023%=      5-min Rain = 0
KTAS 142130Z 07007KT 36/12 A3008 RMK A01 T03580117  RH  023%=      5-min Rain = 0
KTAS 142131Z 07008G14KT 36/12 A3008 RMK A01 T03570116  RH  023%=      5-min Rain = 0
KTAS 142132Z 07009G14KT 35/12 A3008 RMK A01 T03540117  RH  024%=      5-min Rain = 0
KTAS 142133Z 07008KT 35/12 A3008 RMK A01 T03540119  RH  024%=      5-min Rain = 0
KTAS 142134Z 10011KT 36/12 A3008 RMK A01 T03570121  RH  024%=      5-min Rain = 0
KTAS 142135Z 09011KT 36/12 A3008 RMK A01 T03590120  RH  024%=      5-min Rain = 0
KTAS 142136Z 08014KT 36/12 A3008 RMK A01 T03590120  RH  024%=      5-min Rain = 0
KTAS 142137Z 08013G18KT 36/12 A3008 RMK A01 T03580119  RH  024%=      5-min Rain = 0
KTAS 142138Z 08011G16KT 36/12 A3008 RMK A01 T03570119  RH  024%=      5-min Rain = 0
KTAS 142139Z 08012KT 36/12 A3008 RMK A01 T03560119  RH  024%=      5-min Rain = 0
KTAS 142140Z 08009KT 35/12 A3008 RMK A01 T03540118  RH  024%=      5-min Rain = 0
KTAS 142141Z 10011KT 35/12 A3008 RMK A01 T03540120  RH  024%=      5-min Rain = 0
KTAS 142142Z 10008KT 36/12 A3008 RMK A01 T03560121  RH  024%=      5-min Rain = 0
KTAS 142143Z 08007KT 36/12 A3008 RMK A01 T03570119  RH  024%=      5-min Rain = 0
KTAS 142144Z 07012G18KT 36/12 A3008 RMK A01 T03560121  RH  024%=      5-min Rain = 0
KTAS 142145Z 09013KT 36/12 A3008 RMK A01 T03570123  RH  024%=      5-min Rain = 0
KTAS 142146Z 09009KT 36/12 A3008 RMK A01 T03590121  RH  024%=      5-min Rain = 0
KTAS 142147Z 08010KT 36/13 A3008 RMK A01 T03600126  RH  024%=      5-min Rain = 0
KTAS 142148Z 08010KT 36/12 A3008 RMK A01 T03630124  RH  024%=      5-min Rain = 0
KTAS 142149Z 08008KT 36/12 A3008 RMK A01 T03590122  RH  024%=      5-min Rain = 0
KTAS 142150Z 10006G11KT 36/12 A3008 RMK A01 T03580123  RH  024%=      5-min Rain = 0
KTAS 142151Z 11005KT 36/12 A3008 RMK A01 T03590123  RH  024%=      5-min Rain = 0
KTAS 142152Z 09004G9KT 36/12 A3008 RMK A01 T03600123  RH  024%=      5-min Rain = 0
KTAS 142153Z 08009KT 36/13 A3008 RMK A01 T03610125  RH  024%=      5-min Rain = 0
KTAS 142154Z 10010KT 36/12 A3008 RMK A01 T03590123  RH  024%=      5-min Rain = 0
KTAS 142155Z 11008KT 36/12 A3008 RMK A01 T03580124  RH  025%=      5-min Rain = 0
KTAS 142156Z 12010KT 36/12 A3008 RMK A01 T03600124  RH  024%=      5-min Rain = 0
KTAS 142157Z 10010KT 36/12 A3008 RMK A01 T03590124  RH  024%=      5-min Rain = 0
KTAS 142158Z 07011G18KT 36/13 A3008 RMK A01 T03610126  RH  024%=      5-min Rain = 0
KTAS 142159Z 08012KT 36/12 A3008 RMK A01 T03590124  RH  024%=      5-min Rain = 0
KTAS 142200Z 07009KT 36/12 A3008 RMK A01 T03580124  RH  024%=      5-min Rain = 0
KTAS 142201Z 08005KT 36/12 A3008 RMK A01 T03580123  RH  024%=      5-min Rain = 0
KTAS 142202Z 08008KT 36/12 A3008 RMK A01 T03590124  RH  024%=      5-min Rain = 0
KTAS 142203Z 10007KT 36/13 A3007 RMK A01 T03610125  RH  024%=      5-min Rain = 0
KTAS 142204Z 06011KT 36/12 A3007 RMK A01 T03600123  RH  024%=      5-min Rain = 0
KTAS 142205Z 05011KT 36/12 A3007 RMK A01 T03570123  RH  024%=      5-min Rain = 0
KTAS 142206Z 05013KT 36/12 A3007 RMK A01 T03560123  RH  024%=      5-min Rain = 0
KTAS 142207Z 05011KT 36/12 A3007 RMK A01 T03560121  RH  024%=      5-min Rain = 0
KTAS 142208Z 06009KT 35/12 A3007 RMK A01 T03530120  RH  025%=      5-min Rain = 0
KTAS 142209Z 08009KT 35/13 A3007 RMK A01 T03540125  RH  025%=      5-min Rain = 0
KTAS 142210Z 08010KT 36/12 A3007 RMK A01 T03600124  RH  024%=      5-min Rain = 0
KTAS 142211Z 09010KT 36/12 A3007 RMK A01 T03600122  RH  024%=      5-min Rain = 0
KTAS 142212Z 07011KT 36/12 A3007 RMK A01 T03600121  RH  024%=      5-min Rain = 0
KTAS 142213Z 07010KT 36/12 A3007 RMK A01 T03580121  RH  024%=      5-min Rain = 0
KTAS 142214Z 08011KT 36/12 A3007 RMK A01 T03560119  RH  024%=      5-min Rain = 0
KTAS 142215Z 07011KT 36/12 A3007 RMK A01 T03560120  RH  024%=      5-min Rain = 0
KTAS 142216Z 08011KT 36/12 A3007 RMK A01 T03560119  RH  024%=      5-min Rain = 0
KTAS 142217Z 09009KT 36/12 A3007 RMK A01 T03570120  RH  024%=      5-min Rain = 0
KTAS 142218Z 09009KT 36/12 A3007 RMK A01 T03570120  RH  024%=      5-min Rain = 0
KTAS 142219Z 10007KT 36/12 A3007 RMK A01 T03550120  RH  024%=      5-min Rain = 0
KTAS 142220Z 09009KT 36/12 A3007 RMK A01 T03580123  RH  024%=      5-min Rain = 0
KTAS 142221Z 08010KT 36/12 A3007 RMK A01 T03600122  RH  024%=      5-min Rain = 0
KTAS 142222Z 06011KT 36/12 A3007 RMK A01 T03600121  RH  024%=      5-min Rain = 0
KTAS 142223Z 06010KT 36/12 A3007 RMK A01 T03570120  RH  024%=      5-min Rain = 0
KTAS 142224Z 08010KT 36/12 A3007 RMK A01 T03580122  RH  024%=      5-min Rain = 0
KTAS 142225Z 08007KT 36/12 A3007 RMK A01 T03590119  RH  024%=      5-min Rain = 0
KTAS 142226Z 06006KT 36/12 A3007 RMK A01 T03570120  RH  024%=      5-min Rain = 0
KTAS 142227Z 05007KT 36/12 A3007 RMK A01 T03590122  RH  024%=      5-min Rain = 0
KTAS 142228Z 07006KT 36/12 A3007 RMK A01 T03570119  RH  024%=      5-min Rain = 0
KTAS 142229Z 07005KT 36/12 A3007 RMK A01 T03590123  RH  024%=      5-min Rain = 0
KTAS 142230Z 09007KT 36/12 A3007 RMK A01 T03610120  RH  023%=      5-min Rain = 0
KTAS 142231Z 09007KT 36/12 A3007 RMK A01 T03580117  RH  023%=      5-min Rain = 0
KTAS 142232Z 10007KT 36/12 A3007 RMK A01 T03570118  RH  024%=      5-min Rain = 0
KTAS 142233Z 09006KT 36/12 A3007 RMK A01 T03560120  RH  024%=      5-min Rain = 0
KTAS 142234Z 06008KT 36/12 A3007 RMK A01 T03570123  RH  024%=      5-min Rain = 0
KTAS 142235Z 06012KT 36/12 A3007 RMK A01 T03560123  RH  025%=      5-min Rain = 0
KTAS 142236Z 06011KT 35/13 A3007 RMK A01 T03540125  RH  025%=      5-min Rain = 0
KTAS 142237Z 06010KT 35/13 A3007 RMK A01 T03540125  RH  025%=      5-min Rain = 0
KTAS 142238Z 05010KT 36/13 A3007 RMK A01 T03550126  RH  025%=      5-min Rain = 0
KTAS 142239Z 04009KT 36/12 A3007 RMK A01 T03550123  RH  025%=      5-min Rain = 0
KTAS 142240Z 04006KT 35/12 A3007 RMK A01 T03540121  RH  025%=      5-min Rain = 0
KTAS 142241Z 04008KT 35/12 A3007 RMK A01 T03530123  RH  025%=      5-min Rain = 0
KTAS 142242Z 06004KT 35/12 A3007 RMK A01 T03510119  RH  025%=      5-min Rain = 0
KTAS 142243Z 08006KT 35/12 A3007 RMK A01 T03500121  RH  025%=      5-min Rain = 0
KTAS 142244Z 07006KT 36/13 A3007 RMK A01 T03550125  RH  025%=      5-min Rain = 0
KTAS 142245Z 09006KT 36/12 A3007 RMK A01 T03570123  RH  024%=      5-min Rain = 0
KTAS 142246Z 09007KT 36/12 A3007 RMK A01 T03570121  RH  024%=      5-min Rain = 0
KTAS 142247Z 06011KT 36/12 A3007 RMK A01 T03550122  RH  025%=      5-min Rain = 0
KTAS 142248Z 08010KT 35/12 A3007 RMK A01 T03540123  RH  025%=      5-min Rain = 0
KTAS 142249Z 09011KT 36/12 A3007 RMK A01 T03550121  RH  025%=      5-min Rain = 0
KTAS 142250Z 08010KT 36/12 A3007 RMK A01 T03550120  RH  024%=      5-min Rain = 0
KTAS 142251Z 09008KT 36/12 A3007 RMK A01 T03560121  RH  024%=      5-min Rain = 0
KTAS 142252Z 10010KT 36/12 A3007 RMK A01 T03560119  RH  024%=      5-min Rain = 0
KTAS 142253Z 09006KT 35/12 A3007 RMK A01 T03540118  RH  024%=      5-min Rain = 0
KTAS 142254Z 07004KT 35/12 A3007 RMK A01 T03540120  RH  024%=      5-min Rain = 0
KTAS 142255Z 08007KT 36/12 A3007 RMK A01 T03560121  RH  024%=      5-min Rain = 0
KTAS 142256Z 08008KT 36/12 A3007 RMK A01 T03560120  RH  024%=      5-min Rain = 0
KTAS 142257Z 09007KT 36/12 A3007 RMK A01 T03550117  RH  024%=      5-min Rain = 0
KTAS 142258Z 09007KT 35/12 A3007 RMK A01 T03530115  RH  024%=      5-min Rain = 0
KTAS 142259Z 07010KT 35/12 A3007 RMK A01 T03530121  RH  025%=      5-min Rain = 0
KTAS 142300Z 07009KT 35/12 A3007 RMK A01 T03540120  RH  024%=      5-min Rain = 0
KTAS 142301Z 07011KT 35/12 A3007 RMK A01 T03510120  RH  025%=      5-min Rain = 0
KTAS 142302Z 06010KT 35/12 A3007 RMK A01 T03520120  RH  025%=      5-min Rain = 0
KTAS 142303Z 07008KT 35/12 A3007 RMK A01 T03520119  RH  025%=      5-min Rain = 0
KTAS 142304Z 09009KT 35/12 A3007 RMK A01 T03530121  RH  025%=      5-min Rain = 0
KTAS 142305Z 10009KT 35/12 A3007 RMK A01 T03530119  RH  024%=      5-min Rain = 0
KTAS 142306Z 10007KT 35/12 A3007 RMK A01 T03510116  RH  024%=      5-min Rain = 0
KTAS 142307Z 11003KT 35/12 A3007 RMK A01 T03490116  RH  024%=      5-min Rain = 0
KTAS 142308Z 09004KT 35/12 A3007 RMK A01 T03510118  RH  025%=      5-min Rain = 0
KTAS 142309Z 09005KT 35/12 A3007 RMK A01 T03510118  RH  024%=      5-min Rain = 0
KTAS 142310Z 07008KT 35/12 A3007 RMK A01 T03510120  RH  025%=      5-min Rain = 0
KTAS 142311Z 07009KT 35/12 A3007 RMK A01 T03510119  RH  024%=      5-min Rain = 0
KTAS 142312Z 07007KT 35/12 A3007 RMK A01 T03500118  RH  025%=      5-min Rain = 0
KTAS 142313Z 07006KT 35/12 A3007 RMK A01 T03500120  RH  025%=      5-min Rain = 0
KTAS 142314Z 08009KT 35/12 A3007 RMK A01 T03520120  RH  025%=      5-min Rain = 0
KTAS 142315Z 09012KT 35/12 A3007 RMK A01 T03530121  RH  025%=      5-min Rain = 0
KTAS 142316Z 06012KT 35/12 A3007 RMK A01 T03530120  RH  025%=      5-min Rain = 0
KTAS 142317Z 06010KT 35/12 A3007 RMK A01 T03510118  RH  024%=      5-min Rain = 0
KTAS 142318Z 08010KT 35/12 A3007 RMK A01 T03520120  RH  025%=      5-min Rain = 0
KTAS 142319Z 08010KT 35/12 A3007 RMK A01 T03520119  RH  024%=      5-min Rain = 0
KTAS 142320Z 06009KT 35/12 A3007 RMK A01 T03520121  RH  025%=      5-min Rain = 0
KTAS 142321Z 07009KT 35/12 A3007 RMK A01 T03520119  RH  024%=      5-min Rain = 0
KTAS 142322Z 06008KT 35/12 A3007 RMK A01 T03510119  RH  025%=      5-min Rain = 0
KTAS 142323Z 07008KT 35/12 A3007 RMK A01 T03510120  RH  025%=      5-min Rain = 0
KTAS 142324Z 06008KT 35/12 A3007 RMK A01 T03510119  RH  025%=      5-min Rain = 0
KTAS 142325Z 08006KT 35/12 A3007 RMK A01 T03500120  RH  025%=      5-min Rain = 0
KTAS 142326Z 09006KT 35/12 A3007 RMK A01 T03500118  RH  025%=      5-min Rain = 0
KTAS 142327Z 09007KT 35/12 A3007 RMK A01 T03500120  RH  025%=      5-min Rain = 0
KTAS 142328Z 10007KT 35/12 A3007 RMK A01 T03500120  RH  025%=      5-min Rain = 0
KTAS 142329Z 08007KT 35/12 A3007 RMK A01 T03490120  RH  025%=      5-min Rain = 0
KTAS 142330Z 09005KT 35/12 A3007 RMK A01 T03480119  RH  025%=      5-min Rain = 0
KTAS 142331Z 07004KT 35/12 A3007 RMK A01 T03480119  RH  025%=      5-min Rain = 0
KTAS 142332Z 08005KT 35/12 A3007 RMK A01 T03490121  RH  025%=      5-min Rain = 0
KTAS 142333Z 06009KT 35/12 A3007 RMK A01 T03510123  RH  025%=      5-min Rain = 0
KTAS 142334Z 08010KT 35/12 A3007 RMK A01 T03500122  RH  025%=      5-min Rain = 0
KTAS 142335Z 07009KT 35/12 A3007 RMK A01 T03500124  RH  026%=      5-min Rain = 0
KTAS 142336Z 08012KT 35/12 A3007 RMK A01 T03500123  RH  025%=      5-min Rain = 0
KTAS 142337Z 08011KT 35/12 A3007 RMK A01 T03500123  RH  026%=      5-min Rain = 0
KTAS 142338Z 08012KT 35/12 A3007 RMK A01 T03490122  RH  025%=      5-min Rain = 0
KTAS 142339Z 09008KT 35/12 A3007 RMK A01 T03490123  RH  026%=      5-min Rain = 0
KTAS 142340Z 09009KT 35/12 A3007 RMK A01 T03490124  RH  026%=      5-min Rain = 0
KTAS 142341Z 09006KT 35/13 A3007 RMK A01 T03490125  RH  026%=      5-min Rain = 0
KTAS 142342Z 07008KT 35/13 A3007 RMK A01 T03500127  RH  026%=      5-min Rain = 0
KTAS 142343Z 07009KT 35/13 A3007 RMK A01 T03500125  RH  026%=      5-min Rain = 0
KTAS 142344Z 09010KT 35/12 A3007 RMK A01 T03490124  RH  026%=      5-min Rain = 0
KTAS 142345Z 09008KT 35/12 A3007 RMK A01 T03480124  RH  026%=      5-min Rain = 0
KTAS 142346Z 10010KT 35/12 A3007 RMK A01 T03480123  RH  026%=      5-min Rain = 0
KTAS 142347Z 11009KT 35/12 A3007 RMK A01 T03470121  RH  025%=      5-min Rain = 0
KTAS 142348Z 10006KT 35/12 A3007 RMK A01 T03460120  RH  026%=      5-min Rain = 0
KTAS 142349Z 11009KT 35/12 A3007 RMK A01 T03450122  RH  026%=      5-min Rain = 0
KTAS 142350Z 12008KT 35/12 A3007 RMK A01 T03460121  RH  026%=      5-min Rain = 0
KTAS 142351Z 11006KT 35/12 A3007 RMK A01 T03450121  RH  026%=      5-min Rain = 0
KTAS 142352Z 10007KT 35/12 A3007 RMK A01 T03450121  RH  026%=      5-min Rain = 0
KTAS 142353Z 10006KT 34/12 A3006 RMK A01 T03440121  RH  026%=      5-min Rain = 0
KTAS 142354Z 07006KT 35/13 A3007 RMK A01 T03460125  RH  026%=      5-min Rain = 0
KTAS 142355Z 06009KT 35/12 A3007 RMK A01 T03470123  RH  026%=      5-min Rain = 0
KTAS 142356Z 08009KT 35/12 A3007 RMK A01 T03460122  RH  026%=      5-min Rain = 0
KTAS 142357Z 08010KT 35/12 A3007 RMK A01 T03460122  RH  026%=      5-min Rain = 0
KTAS 142358Z 07008KT 35/12 A3006 RMK A01 T03450120  RH  026%=      5-min Rain = 0
KTAS 142359Z 09007KT 35/12 A3007 RMK A01 T03450121  RH  026%=      5-min Rain = 0
KTAS 150000Z 08010KT 35/12 A3007 RMK A01 T03450121  RH  026%=      5-min Rain = 0
KTAS 150001Z 07008KT 34/12 A3007 RMK A01 T03440120  RH  026%=      5-min Rain = 0
KTAS 150002Z 06010KT 34/12 A3006 RMK A01 T03440120  RH  026%=      5-min Rain = 0
KTAS 150003Z 07009KT 34/12 A3006 RMK A01 T03430120  RH  026%=      5-min Rain = 0
KTAS 150004Z 07009KT 34/12 A3006 RMK A01 T03430121  RH  026%=      5-min Rain = 0
KTAS 150005Z 06008KT 34/12 A3006 RMK A01 T03440121  RH  026%=      5-min Rain = 0
KTAS 150006Z 05008KT 34/12 A3006 RMK A01 T03430121  RH  026%=      5-min Rain = 0
KTAS 150007Z 07007KT 34/12 A3006 RMK A01 T03430121  RH  026%=      5-min Rain = 0
KTAS 150008Z 09007KT 34/12 A3006 RMK A01 T03430122  RH  026%=      5-min Rain = 0
KTAS 150009Z 08007KT 34/12 A3006 RMK A01 T03430124  RH  027%=      5-min Rain = 0
KTAS 150010Z 08007KT 34/12 A3006 RMK A01 T03440124  RH  026%=      5-min Rain = 0
KTAS 150011Z 08007KT 34/12 A3006 RMK A01 T03440123  RH  026%=      5-min Rain = 0
KTAS 150012Z 09007KT 34/12 A3006 RMK A01 T03430122  RH  026%=      5-min Rain = 0
KTAS 150013Z 09010KT 34/13 A3006 RMK A01 T03430125  RH  027%=      5-min Rain = 0
KTAS 150014Z 09008KT 34/13 A3006 RMK A01 T03420127  RH  027%=      5-min Rain = 0
KTAS 150015Z 06008KT 34/13 A3006 RMK A01 T03410129  RH  028%=      5-min Rain = 0
KTAS 150016Z 05008KT 34/13 A3006 RMK A01 T03410127  RH  027%=      5-min Rain = 0
KTAS 150017Z 05007KT 34/13 A3006 RMK A01 T03400128  RH  028%=      5-min Rain = 0
KTAS 150018Z 07011KT 34/13 A3006 RMK A01 T03400129  RH  028%=      5-min Rain = 0
KTAS 150019Z 07009KT 34/13 A3007 RMK A01 T03390130  RH  028%=      5-min Rain = 0
KTAS 150020Z 08010KT 34/13 A3007 RMK A01 T03390132  RH  029%=      5-min Rain = 0
KTAS 150021Z 08008KT 34/13 A3007 RMK A01 T03390132  RH  029%=      5-min Rain = 0
KTAS 150022Z 08010KT 34/13 A3007 RMK A01 T03390132  RH  029%=      5-min Rain = 0
KTAS 150023Z 08010KT 34/13 A3007 RMK A01 T03390131  RH  028%=      5-min Rain = 0
KTAS 150024Z 07010KT 34/13 A3007 RMK A01 T03380131  RH  029%=      5-min Rain = 0
KTAS 150025Z 07009KT 34/13 A3007 RMK A01 T03370132  RH  029%=      5-min Rain = 0
KTAS 150026Z 07009KT 34/13 A3007 RMK A01 T03370131  RH  029%=      5-min Rain = 0
KTAS 150027Z 07008KT 34/13 A3007 RMK A01 T03360130  RH  029%=      5-min Rain = 0
KTAS 150028Z 05007KT 34/13 A3007 RMK A01 T03360131  RH  029%=      5-min Rain = 0
KTAS 150029Z 06010KT 34/13 A3007 RMK A01 T03360132  RH  029%=      5-min Rain = 0
KTAS 150030Z 06010KT 34/13 A3007 RMK A01 T03350132  RH  029%=      5-min Rain = 0
KTAS 150031Z 07011KT 34/13 A3007 RMK A01 T03350132  RH  029%=      5-min Rain = 0
KTAS 150032Z 07010KT 34/13 A3007 RMK A01 T03350133  RH  029%=      5-min Rain = 0
KTAS 150033Z 06009KT 34/13 A3007 RMK A01 T03350132  RH  029%=      5-min Rain = 0
KTAS 150034Z 06010KT 33/13 A3007 RMK A01 T03340132  RH  029%=      5-min Rain = 0
KTAS 150035Z 06011KT 33/13 A3007 RMK A01 T03330131  RH  029%=      5-min Rain = 0
KTAS 150036Z 07010KT 33/13 A3007 RMK A01 T03330131  RH  029%=      5-min Rain = 0
KTAS 150037Z 08010KT 33/13 A3007 RMK A01 T03330132  RH  030%=      5-min Rain = 0
KTAS 150038Z 09010KT 33/13 A3007 RMK A01 T03330132  RH  030%=      5-min Rain = 0
KTAS 150039Z 09009KT 33/13 A3007 RMK A01 T03330132  RH  030%=      5-min Rain = 0
KTAS 150040Z 08008KT 33/13 A3007 RMK A01 T03330132  RH  030%=      5-min Rain = 0
KTAS 150041Z 08009KT 33/13 A3007 RMK A01 T03330132  RH  030%=      5-min Rain = 0
KTAS 150042Z 08008KT 33/13 A3007 RMK A01 T03330132  RH  030%=      5-min Rain = 0
KTAS 150043Z 08010KT 33/13 A3007 RMK A01 T03330134  RH  030%=      5-min Rain = 0
KTAS 150044Z 10006KT 33/13 A3007 RMK A01 T03320134  RH  030%=      5-min Rain = 0
KTAS 150045Z 09006KT 33/13 A3007 RMK A01 T03320134  RH  030%=      5-min Rain = 0
KTAS 150046Z 10006KT 33/14 A3007 RMK A01 T03310135  RH  031%=      5-min Rain = 0
KTAS 150047Z 10011KT 33/14 A3007 RMK A01 T03310135  RH  031%=      5-min Rain = 0
KTAS 150048Z 10010KT 33/13 A3007 RMK A01 T03300134  RH  031%=      5-min Rain = 0
KTAS 150049Z 09009KT 33/13 A3007 RMK A01 T03290134  RH  031%=      5-min Rain = 0
KTAS 150050Z 09008KT 33/14 A3007 RMK A01 T03290135  RH  031%=      5-min Rain = 0
KTAS 150051Z 08007KT 33/14 A3007 RMK A01 T03290136  RH  031%=      5-min Rain = 0
KTAS 150052Z 09007KT 33/14 A3007 RMK A01 T03270136  RH  031%=      5-min Rain = 0
KTAS 150053Z 10006KT 33/14 A3008 RMK A01 T03270136  RH  031%=      5-min Rain = 0
KTAS 150054Z 10007KT 33/14 A3008 RMK A01 T03270137  RH  032%=      5-min Rain = 0
KTAS 150055Z 11008KT 33/14 A3008 RMK A01 T03260137  RH  032%=      5-min Rain = 0
KTAS 150056Z 10009KT 33/14 A3008 RMK A01 T03250136  RH  032%=      5-min Rain = 0
KTAS 150057Z 10006KT 33/14 A3008 RMK A01 T03250137  RH  032%=      5-min Rain = 0
KTAS 150058Z 11006KT 33/14 A3008 RMK A01 T03250137  RH  032%=      5-min Rain = 0
KTAS 150059Z 11009KT 32/14 A3008 RMK A01 T03230136  RH  032%=      5-min Rain = 0
KTAS 150100Z 10008KT 32/14 A3008 RMK A01 T03220135  RH  032%=      5-min Rain = 0
KTAS 150101Z 10008KT 32/14 A3008 RMK A01 T03210136  RH  032%=      5-min Rain = 0
KTAS 150102Z 10007KT 32/14 A3008 RMK A01 T03200137  RH  033%=      5-min Rain = 0
KTAS 150103Z 09007KT 32/14 A3008 RMK A01 T03190136  RH  033%=      5-min Rain = 0
KTAS 150104Z 10007KT 32/14 A3008 RMK A01 T03190136  RH  033%=      5-min Rain = 0
KTAS 150105Z 10008KT 32/14 A3008 RMK A01 T03180135  RH  033%=      5-min Rain = 0
KTAS 150106Z 10007KT 32/13 A3008 RMK A01 T03190133  RH  032%=      5-min Rain = 0
KTAS 150107Z 10008KT 32/13 A3008 RMK A01 T03200133  RH  032%=      5-min Rain = 0
KTAS 150108Z 10007KT 32/13 A3008 RMK A01 T03200132  RH  032%=      5-min Rain = 0
KTAS 150109Z 11007KT 32/13 A3008 RMK A01 T03190132  RH  032%=      5-min Rain = 0
KTAS 150110Z 11007KT 32/13 A3008 RMK A01 T03190133  RH  032%=      5-min Rain = 0
KTAS 150111Z 10006KT 32/13 A3008 RMK A01 T03180133  RH  033%=      5-min Rain = 0
KTAS 150112Z 10008KT 32/13 A3008 RMK A01 T03170134  RH  033%=      5-min Rain = 0
KTAS 150113Z 09007KT 32/13 A3008 RMK A01 T03170133  RH  033%=      5-min Rain = 0
KTAS 150114Z 09006KT 32/13 A3008 RMK A01 T03160133  RH  033%=      5-min Rain = 0
KTAS 150115Z 09007KT 32/13 A3008 RMK A01 T03160133  RH  033%=      5-min Rain = 0
KTAS 150116Z 10008KT 32/13 A3008 RMK A01 T03150133  RH  033%=      5-min Rain = 0
KTAS 150117Z 10008KT 32/13 A3008 RMK A01 T03150133  RH  033%=      5-min Rain = 0
KTAS 150118Z 10007KT 32/13 A3008 RMK A01 T03150133  RH  033%=      5-min Rain = 0
KTAS 150119Z 09007KT 32/13 A3008 RMK A01 T03150134  RH  033%=      5-min Rain = 0
KTAS 150120Z 10006KT 31/14 A3008 RMK A01 T03140135  RH  034%=      5-min Rain = 0
KTAS 150121Z 10006KT 31/14 A3008 RMK A01 T03130135  RH  034%=      5-min Rain = 0
KTAS 150122Z 10006KT 31/14 A3008 RMK A01 T03120135  RH  034%=      5-min Rain = 0
KTAS 150123Z 09006KT 31/14 A3008 RMK A01 T03110136  RH  034%=      5-min Rain = 0
KTAS 150124Z 09005KT 31/14 A3009 RMK A01 T03090136  RH  035%=      5-min Rain = 0
KTAS 150125Z 09005KT 31/14 A3009 RMK A01 T03080136  RH  035%=      5-min Rain = 0
KTAS 150126Z 10005KT 31/14 A3009 RMK A01 T03070136  RH  035%=      5-min Rain = 0
KTAS 150127Z 09006KT 31/14 A3009 RMK A01 T03060137  RH  036%=      5-min Rain = 0
KTAS 150128Z 10005KT 31/14 A3009 RMK A01 T03050136  RH  036%=      5-min Rain = 0
KTAS 150129Z 09005KT 30/14 A3009 RMK A01 T03040136  RH  036%=      5-min Rain = 0
KTAS 150130Z 10006KT 30/14 A3009 RMK A01 T03040137  RH  036%=      5-min Rain = 0
KTAS 150131Z 10006KT 30/14 A3009 RMK A01 T03030137  RH  036%=      5-min Rain = 0
KTAS 150132Z 10006KT 30/14 A3009 RMK A01 T03020137  RH  036%=      5-min Rain = 0
KTAS 150133Z 11006KT 30/14 A3009 RMK A01 T03020137  RH  036%=      5-min Rain = 0
KTAS 150134Z 11006KT 30/14 A3009 RMK A01 T03020138  RH  037%=      5-min Rain = 0
KTAS 150135Z 11006KT 30/14 A3009 RMK A01 T03010138  RH  037%=      5-min Rain = 0
KTAS 150136Z 11006KT 30/14 A3009 RMK A01 T03010138  RH  037%=      5-min Rain = 0
KTAS 150137Z 11007KT 30/14 A3009 RMK A01 T03010138  RH  037%=      5-min Rain = 0
KTAS 150138Z 11006KT 30/14 A3009 RMK A01 T03020137  RH  037%=      5-min Rain = 0
KTAS 150139Z 11007KT 30/14 A3009 RMK A01 T03040137  RH  036%=      5-min Rain = 0
KTAS 150140Z 11006KT 30/14 A3009 RMK A01 T03040138  RH  036%=      5-min Rain = 0
KTAS 150141Z 10007KT 30/14 A3009 RMK A01 T03030138  RH  036%=      5-min Rain = 0
KTAS 150142Z 11007KT 30/14 A301 RMK A01 T03030138  RH  036%=      5-min Rain = 0
KTAS 150143Z 10007KT 30/14 A301 RMK A01 T03030138  RH  037%=      5-min Rain = 0
KTAS 150144Z 10007KT 30/14 A301 RMK A01 T03020138  RH  037%=      5-min Rain = 0
KTAS 150145Z 10005KT 30/14 A301 RMK A01 T03020138  RH  037%=      5-min Rain = 0
KTAS 150146Z 11006KT 30/14 A301 RMK A01 T03010139  RH  037%=      5-min Rain = 0
KTAS 150147Z 11005KT 30/14 A301 RMK A01 T03010139  RH  037%=      5-min Rain = 0
KTAS 150148Z 11005KT 30/14 A301 RMK A01 T03000139  RH  037%=      5-min Rain = 0
KTAS 150149Z 11005KT 30/14 A301 RMK A01 T02990140  RH  038%=      5-min Rain = 0
KTAS 150150Z 11005KT 30/14 A301 RMK A01 T02970140  RH  038%=      5-min Rain = 0
KTAS 150151Z 11005KT 30/14 A301 RMK A01 T02960140  RH  038%=      5-min Rain = 0
KTAS 150152Z 10006KT 30/14 A301 RMK A01 T02950140  RH  039%=      5-min Rain = 0
KTAS 150153Z 10005KT 30/14 A301 RMK A01 T02950140  RH  039%=      5-min Rain = 0
KTAS 150154Z 10005KT 30/14 A3011 RMK A01 T02950140  RH  039%=      5-min Rain = 0
KTAS 150155Z 10006KT 30/14 A3011 RMK A01 T02950140  RH  039%=      5-min Rain = 0
KTAS 150156Z 09006KT 30/14 A3011 RMK A01 T02950140  RH  039%=      5-min Rain = 0
KTAS 150157Z 09006KT 29/14 A3011 RMK A01 T02940140  RH  039%=      5-min Rain = 0
KTAS 150158Z 10006KT 29/14 A3011 RMK A01 T02940140  RH  039%=      5-min Rain = 0
KTAS 150159Z 10006KT 29/14 A3011 RMK A01 T02930140  RH  039%=      5-min Rain = 0
KTAS 150200Z 10006KT 29/14 A3011 RMK A01 T02920140  RH  039%=      5-min Rain = 0
KTAS 150201Z 09006KT 29/14 A3011 RMK A01 T02920140  RH  039%=      5-min Rain = 0
KTAS 150202Z 10006KT 29/14 A3011 RMK A01 T02910140  RH  040%=      5-min Rain = 0
KTAS 150203Z 10006KT 29/14 A3011 RMK A01 T02900140  RH  040%=      5-min Rain = 0
KTAS 150204Z 10006KT 29/14 A3011 RMK A01 T02900140  RH  040%=      5-min Rain = 0
KTAS 150205Z 10006KT 29/14 A3011 RMK A01 T02900140  RH  040%=      5-min Rain = 0
KTAS 150206Z 10006KT 29/14 A3011 RMK A01 T02900141  RH  040%=      5-min Rain = 0
KTAS 150207Z 10006KT 29/14 A3011 RMK A01 T02890140  RH  040%=      5-min Rain = 0
KTAS 150208Z 10006KT 29/14 A3011 RMK A01 T02890141  RH  040%=      5-min Rain = 0
KTAS 150209Z 10005KT 29/14 A3011 RMK A01 T02890141  RH  040%=      5-min Rain = 0
KTAS 150210Z 10005KT 29/14 A3011 RMK A01 T02890141  RH  041%=      5-min Rain = 0
KTAS 150211Z 09006KT 29/14 A3011 RMK A01 T02880142  RH  041%=      5-min Rain = 0
KTAS 150212Z 10005KT 29/14 A3011 RMK A01 T02880142  RH  041%=      5-min Rain = 0
KTAS 150213Z 09006KT 29/14 A3011 RMK A01 T02880143  RH  041%=      5-min Rain = 0
KTAS 150214Z 10006KT 29/14 A3011 RMK A01 T02880143  RH  041%=      5-min Rain = 0
KTAS 150215Z 09006KT 29/14 A3011 RMK A01 T02880143  RH  041%=      5-min Rain = 0
KTAS 150216Z 10007KT 29/14 A3011 RMK A01 T02870143  RH  041%=      5-min Rain = 0
KTAS 150217Z 10007KT 29/14 A3011 RMK A01 T02880143  RH  041%=      5-min Rain = 0
KTAS 150218Z 10006KT 29/14 A3011 RMK A01 T02890143  RH  041%=      5-min Rain = 0
KTAS 150219Z 09006KT 29/14 A3011 RMK A01 T02890143  RH  041%=      5-min Rain = 0
KTAS 150220Z 10006KT 29/14 A3011 RMK A01 T02890143  RH  041%=      5-min Rain = 0
KTAS 150221Z 10007KT 29/14 A3011 RMK A01 T02890143  RH  041%=      5-min Rain = 0
KTAS 150222Z 10007KT 29/14 A3012 RMK A01 T02890143  RH  041%=      5-min Rain = 0
KTAS 150223Z 10007KT 29/14 A3012 RMK A01 T02890144  RH  041%=      5-min Rain = 0
KTAS 150224Z 11007KT 29/14 A3012 RMK A01 T02890144  RH  041%=      5-min Rain = 0
KTAS 150225Z 10007KT 29/14 A3012 RMK A01 T02910144  RH  041%=      5-min Rain = 0
KTAS 150226Z 11007KT 29/14 A3012 RMK A01 T02910144  RH  041%=      5-min Rain = 0
KTAS 150227Z 11006KT 29/14 A3012 RMK A01 T02910144  RH  041%=      5-min Rain = 0
KTAS 150228Z 10007KT 29/14 A3012 RMK A01 T02910144  RH  041%=      5-min Rain = 0
KTAS 150229Z 10006KT 29/14 A3012 RMK A01 T02900144  RH  041%=      5-min Rain = 0
KTAS 150230Z 11006KT 29/14 A3012 RMK A01 T02900144  RH  041%=      5-min Rain = 0
KTAS 150231Z 10007KT 29/15 A3012 RMK A01 T02890145  RH  041%=      5-min Rain = 0
KTAS 150232Z 10007KT 29/15 A3012 RMK A01 T02890145  RH  041%=      5-min Rain = 0
KTAS 150233Z 10007KT 29/15 A3012 RMK A01 T02900145  RH  041%=      5-min Rain = 0
KTAS 150234Z 10008KT 29/15 A3012 RMK A01 T02910146  RH  041%=      5-min Rain = 0
KTAS 150235Z 10008KT 29/15 A3012 RMK A01 T02910146  RH  041%=      5-min Rain = 0
KTAS 150236Z 10008KT 29/15 A3012 RMK A01 T02910147  RH  041%=      5-min Rain = 0
KTAS 150237Z 10007KT 29/15 A3012 RMK A01 T02910146  RH  041%=      5-min Rain = 0
KTAS 150238Z 10007KT 29/15 A3012 RMK A01 T02900146  RH  042%=      5-min Rain = 0
KTAS 150239Z 09007KT 29/15 A3012 RMK A01 T02890146  RH  042%=      5-min Rain = 0
KTAS 150240Z 10006KT 29/15 A3013 RMK A01 T02890147  RH  042%=      5-min Rain = 0
KTAS 150241Z 10007KT 29/15 A3013 RMK A01 T02880147  RH  042%=      5-min Rain = 0
KTAS 150242Z 10007KT 29/15 A3013 RMK A01 T02880147  RH  042%=      5-min Rain = 0
KTAS 150243Z 10006KT 29/15 A3013 RMK A01 T02880148  RH  042%=      5-min Rain = 0
KTAS 150244Z 10007KT 29/15 A3013 RMK A01 T02880148  RH  042%=      5-min Rain = 0
KTAS 150245Z 10006KT 29/15 A3013 RMK A01 T02890148  RH  042%=      5-min Rain = 0
KTAS 150246Z 10006KT 29/15 A3013 RMK A01 T02890148  RH  042%=      5-min Rain = 0
KTAS 150247Z 10008KT 29/15 A3013 RMK A01 T02880148  RH  042%=      5-min Rain = 0
KTAS 150248Z 09006KT 29/15 A3013 RMK A01 T02880148  RH  043%=      5-min Rain = 0
KTAS 150249Z 10008KT 29/15 A3013 RMK A01 T02880148  RH  043%=      5-min Rain = 0
KTAS 150250Z 10007KT 29/15 A3013 RMK A01 T02890149  RH  043%=      5-min Rain = 0
KTAS 150251Z 09007KT 29/15 A3013 RMK A01 T02880149  RH  043%=      5-min Rain = 0
KTAS 150252Z 10008KT 29/15 A3013 RMK A01 T02880149  RH  043%=      5-min Rain = 0
KTAS 150253Z 10007KT 29/15 A3013 RMK A01 T02880149  RH  043%=      5-min Rain = 0
KTAS 150254Z 10007KT 29/15 A3013 RMK A01 T02880149  RH  043%=      5-min Rain = 0
KTAS 150255Z 10008KT 29/15 A3013 RMK A01 T02870149  RH  043%=      5-min Rain = 0
KTAS 150256Z 10009KT 29/15 A3013 RMK A01 T02870149  RH  043%=      5-min Rain = 0
KTAS 150257Z 10008KT 29/15 A3013 RMK A01 T02890149  RH  043%=      5-min Rain = 0
KTAS 150258Z 10007KT 29/15 A3013 RMK A01 T02890150  RH  043%=      5-min Rain = 0
KTAS 150259Z 10007KT 29/15 A3013 RMK A01 T02890149  RH  043%=      5-min Rain = 0
KTAS 150300Z 10008KT 29/15 A3013 RMK A01 T02880149  RH  043%=      5-min Rain = 0
KTAS 150301Z 10007KT 29/15 A3013 RMK A01 T02880149  RH  043%=      5-min Rain = 0
KTAS 150302Z 10007KT 29/15 A3013 RMK A01 T02870150  RH  043%=      5-min Rain = 0
KTAS 150303Z 10009KT 29/15 A3013 RMK A01 T02870150  RH  043%=      5-min Rain = 0
KTAS 150304Z 10010KT 29/15 A3013 RMK A01 T02880150  RH  043%=      5-min Rain = 0
KTAS 150305Z 11009KT 29/15 A3013 RMK A01 T02890150  RH  043%=      5-min Rain = 0
KTAS 150306Z 11009KT 29/15 A3013 RMK A01 T02890150  RH  043%=      5-min Rain = 0
KTAS 150307Z 11009KT 29/15 A3013 RMK A01 T02900151  RH  043%=      5-min Rain = 0
KTAS 150308Z 11007KT 29/15 A3013 RMK A01 T02890151  RH  043%=      5-min Rain = 0
KTAS 150309Z 10008KT 29/15 A3013 RMK A01 T02880151  RH  043%=      5-min Rain = 0
KTAS 150310Z 11008KT 29/15 A3014 RMK A01 T02870151  RH  044%=      5-min Rain = 0
KTAS 150311Z 10009KT 29/15 A3014 RMK A01 T02870151  RH  044%=      5-min Rain = 0
KTAS 150312Z 10008KT 29/15 A3014 RMK A01 T02870151  RH  044%=      5-min Rain = 0
KTAS 150313Z 11008KT 29/15 A3014 RMK A01 T02860151  RH  044%=      5-min Rain = 0
KTAS 150314Z 10009KT 29/15 A3014 RMK A01 T02860151  RH  044%=      5-min Rain = 0
KTAS 150315Z 10008KT 29/15 A3014 RMK A01 T02870152  RH  044%=      5-min Rain = 0
KTAS 150316Z 10009KT 29/15 A3014 RMK A01 T02870151  RH  044%=      5-min Rain = 0
KTAS 150317Z 10008KT 29/15 A3014 RMK A01 T02860152  RH  044%=      5-min Rain = 0
KTAS 150318Z 10007KT 29/15 A3014 RMK A01 T02850152  RH  044%=      5-min Rain = 0
KTAS 150319Z 11008KT 28/15 A3014 RMK A01 T02840152  RH  045%=      5-min Rain = 0
KTAS 150320Z 10007KT 28/15 A3014 RMK A01 T02840152  RH  045%=      5-min Rain = 0
KTAS 150321Z 10007KT 28/15 A3014 RMK A01 T02840152  RH  045%=      5-min Rain = 0
KTAS 150322Z 11006KT 28/15 A3014 RMK A01 T02840153  RH  045%=      5-min Rain = 0
KTAS 150323Z 11007KT 28/15 A3014 RMK A01 T02830153  RH  045%=      5-min Rain = 0
KTAS 150324Z 11006KT 28/15 A3014 RMK A01 T02820153  RH  045%=      5-min Rain = 0
KTAS 150325Z 11007KT 28/15 A3014 RMK A01 T02820153  RH  046%=      5-min Rain = 0
KTAS 150326Z 11006KT 28/15 A3014 RMK A01 T02810153  RH  046%=      5-min Rain = 0
KTAS 150327Z 11006KT 28/15 A3014 RMK A01 T02810153  RH  046%=      5-min Rain = 0
KTAS 150328Z 10006KT 28/15 A3014 RMK A01 T02800154  RH  046%=      5-min Rain = 0
KTAS 150329Z 11006KT 28/15 A3014 RMK A01 T02790154  RH  046%=      5-min Rain = 0
KTAS 150330Z 11005KT 28/15 A3014 RMK A01 T02790154  RH  047%=      5-min Rain = 0
KTAS 150331Z 11005KT 28/15 A3014 RMK A01 T02780154  RH  047%=      5-min Rain = 0
KTAS 150332Z 11005KT 28/15 A3014 RMK A01 T02770154  RH  047%=      5-min Rain = 0
KTAS 150333Z 11005KT 28/15 A3014 RMK A01 T02770154  RH  047%=      5-min Rain = 0
KTAS 150334Z 12005KT 28/15 A3014 RMK A01 T02760154  RH  047%=      5-min Rain = 0
KTAS 150335Z 12005KT 28/15 A3014 RMK A01 T02760154  RH  047%=      5-min Rain = 0
KTAS 150336Z 13006KT 28/15 A3014 RMK A01 T02750154  RH  048%=      5-min Rain = 0
KTAS 150337Z 13006KT 28/15 A3014 RMK A01 T02750154  RH  048%=      5-min Rain = 0
KTAS 150338Z 13006KT 27/15 A3014 RMK A01 T02740154  RH  048%=      5-min Rain = 0
KTAS 150339Z 13006KT 27/15 A3015 RMK A01 T02740154  RH  048%=      5-min Rain = 0
KTAS 150340Z 13006KT 27/15 A3015 RMK A01 T02730153  RH  048%=      5-min Rain = 0
KTAS 150341Z 12006KT 27/15 A3015 RMK A01 T02730153  RH  048%=      5-min Rain = 0
KTAS 150342Z 12005KT 27/15 A3015 RMK A01 T02720153  RH  048%=      5-min Rain = 0
KTAS 150343Z 11005KT 27/15 A3015 RMK A01 T02710153  RH  048%=      5-min Rain = 0
KTAS 150344Z 12005KT 27/15 A3015 RMK A01 T02700153  RH  049%=      5-min Rain = 0
KTAS 150345Z 11005KT 27/15 A3015 RMK A01 T02700153  RH  049%=      5-min Rain = 0
KTAS 150346Z 11004KT 27/15 A3015 RMK A01 T02690153  RH  049%=      5-min Rain = 0
KTAS 150347Z 12005KT 27/15 A3015 RMK A01 T02690153  RH  049%=      5-min Rain = 0
KTAS 150348Z 12006KT 27/15 A3015 RMK A01 T02680153  RH  049%=      5-min Rain = 0
KTAS 150349Z 12005KT 27/15 A3015 RMK A01 T02680153  RH  049%=      5-min Rain = 0
KTAS 150350Z 12006KT 27/15 A3015 RMK A01 T02680152  RH  049%=      5-min Rain = 0
KTAS 150351Z 12005KT 27/15 A3015 RMK A01 T02680152  RH  049%=      5-min Rain = 0
KTAS 150352Z 12005KT 27/15 A3015 RMK A01 T02680153  RH  049%=      5-min Rain = 0
KTAS 150353Z 13005KT 27/15 A3015 RMK A01 T02680153  RH  049%=      5-min Rain = 0
KTAS 150354Z 12005KT 27/15 A3015 RMK A01 T02670152  RH  049%=      5-min Rain = 0
KTAS 150355Z 12006KT 27/15 A3015 RMK A01 T02670152  RH  049%=      5-min Rain = 0
KTAS 150356Z 12005KT 27/15 A3015 RMK A01 T02670152  RH  049%=      5-min Rain = 0
KTAS 150357Z 11005KT 27/15 A3015 RMK A01 T02670152  RH  049%=      5-min Rain = 0
KTAS 150358Z 11004KT 27/15 A3015 RMK A01 T02660152  RH  049%=      5-min Rain = 0
KTAS 150359Z 11005KT 27/15 A3015 RMK A01 T02660152  RH  050%=      5-min Rain = 0
KTAS 150400Z 10005KT 27/15 A3015 RMK A01 T02650152  RH  050%=      5-min Rain = 0
KTAS 150401Z 10005KT 27/15 A3015 RMK A01 T02650152  RH  050%=      5-min Rain = 0
KTAS 150402Z 10005KT 27/15 A3015 RMK A01 T02650153  RH  050%=      5-min Rain = 0
KTAS 150403Z 10005KT 26/15 A3016 RMK A01 T02640152  RH  050%=      5-min Rain = 0
KTAS 150404Z 11005KT 26/15 A3015 RMK A01 T02640153  RH  050%=      5-min Rain = 0
KTAS 150405Z 11004KT 26/15 A3016 RMK A01 T02630153  RH  051%=      5-min Rain = 0
KTAS 150406Z 11005KT 26/15 A3016 RMK A01 T02630153  RH  051%=      5-min Rain = 0
KTAS 150407Z 10005KT 26/15 A3015 RMK A01 T02630153  RH  051%=      5-min Rain = 0
KTAS 150408Z 10005KT 26/15 A3015 RMK A01 T02630153  RH  051%=      5-min Rain = 0
KTAS 150409Z 10004KT 26/15 A3015 RMK A01 T02630153  RH  051%=      5-min Rain = 0
KTAS 150410Z 10005KT 26/15 A3015 RMK A01 T02630153  RH  051%=      5-min Rain = 0
KTAS 150411Z 10005KT 26/15 A3015 RMK A01 T02630153  RH  051%=      5-min Rain = 0
KTAS 150412Z 10005KT 26/15 A3015 RMK A01 T02620153  RH  051%=      5-min Rain = 0
KTAS 150413Z 10005KT 26/15 A3015 RMK A01 T02620153  RH  051%=      5-min Rain = 0
KTAS 150414Z 09005KT 26/15 A3015 RMK A01 T02620154  RH  051%=      5-min Rain = 0
KTAS 150415Z 10006KT 26/15 A3015 RMK A01 T02620154  RH  051%=      5-min Rain = 0
KTAS 150416Z 10006KT 26/15 A3016 RMK A01 T02620154  RH  051%=      5-min Rain = 0
KTAS 150417Z 10005KT 26/15 A3016 RMK A01 T02620154  RH  051%=      5-min Rain = 0
KTAS 150418Z 09006KT 26/15 A3016 RMK A01 T02620154  RH  051%=      5-min Rain = 0
KTAS 150419Z 10005KT 26/15 A3016 RMK A01 T02620154  RH  052%=      5-min Rain = 0
KTAS 150420Z 10005KT 26/16 A3016 RMK A01 T02620155  RH  052%=      5-min Rain = 0
KTAS 150421Z 10005KT 26/16 A3016 RMK A01 T02620156  RH  052%=      5-min Rain = 0
KTAS 150422Z 11007KT 26/16 A3016 RMK A01 T02630156  RH  052%=      5-min Rain = 0
KTAS 150423Z 11007KT 27/16 A3016 RMK A01 T02650157  RH  051%=      5-min Rain = 0
KTAS 150424Z 10006KT 27/16 A3016 RMK A01 T02660157  RH  051%=      5-min Rain = 0
KTAS 150425Z 10007KT 27/16 A3016 RMK A01 T02660158  RH  051%=      5-min Rain = 0
KTAS 150426Z 10006KT 27/16 A3016 RMK A01 T02670158  RH  051%=      5-min Rain = 0
KTAS 150427Z 11006KT 27/16 A3016 RMK A01 T02680158  RH  051%=      5-min Rain = 0
KTAS 150428Z 10007KT 27/16 A3016 RMK A01 T02690158  RH  051%=      5-min Rain = 0
KTAS 150429Z 10007KT 27/16 A3016 RMK A01 T02690158  RH  050%=      5-min Rain = 0
KTAS 150430Z 10007KT 27/16 A3016 RMK A01 T02700158  RH  050%=      5-min Rain = 0
KTAS 150431Z 10006KT 27/16 A3016 RMK A01 T02700158  RH  050%=      5-min Rain = 0
KTAS 150432Z 10007KT 27/16 A3016 RMK A01 T02700158  RH  050%=      5-min Rain = 0
KTAS 150433Z 10007KT 27/16 A3016 RMK A01 T02700158  RH  050%=      5-min Rain = 0
KTAS 150434Z 11008KT 27/16 A3016 RMK A01 T02710159  RH  050%=      5-min Rain = 0
KTAS 150435Z 10007KT 27/16 A3016 RMK A01 T02710159  RH  050%=      5-min Rain = 0
KTAS 150436Z 11007KT 27/16 A3016 RMK A01 T02710159  RH  050%=      5-min Rain = 0
KTAS 150437Z 10008KT 27/16 A3015 RMK A01 T02720160  RH  050%=      5-min Rain = 0
KTAS 150438Z 10008KT 27/16 A3015 RMK A01 T02730159  RH  050%=      5-min Rain = 0
KTAS 150439Z 10006KT 27/16 A3015 RMK A01 T02730159  RH  050%=      5-min Rain = 0
KTAS 150440Z 09007KT 27/16 A3015 RMK A01 T02720159  RH  050%=      5-min Rain = 0
KTAS 150441Z 10008KT 27/16 A3015 RMK A01 T02720160  RH  050%=      5-min Rain = 0
KTAS 150442Z 09007KT 27/16 A3015 RMK A01 T02730159  RH  050%=      5-min Rain = 0
KTAS 150443Z 09007KT 27/16 A3015 RMK A01 T02720159  RH  050%=      5-min Rain = 0
KTAS 150444Z 09008KT 27/16 A3015 RMK A01 T02720159  RH  050%=      5-min Rain = 0
KTAS 150445Z 09009KT 27/16 A3015 RMK A01 T02710159  RH  050%=      5-min Rain = 0
KTAS 150446Z 09008KT 27/16 A3015 RMK A01 T02720160  RH  050%=      5-min Rain = 0
KTAS 150447Z 10007KT 27/16 A3015 RMK A01 T02710160  RH  050%=      5-min Rain = 0
KTAS 150448Z 10007KT 27/16 A3015 RMK A01 T02700160  RH  051%=      5-min Rain = 0
KTAS 150449Z 09006KT 27/16 A3015 RMK A01 T02710161  RH  051%=      5-min Rain = 0
KTAS 150450Z 09007KT 27/16 A3015 RMK A01 T02710161  RH  051%=      5-min Rain = 0
KTAS 150451Z 09008KT 27/16 A3015 RMK A01 T02710161  RH  051%=      5-min Rain = 0
KTAS 150452Z 10008KT 27/16 A3015 RMK A01 T02720162  RH  051%=      5-min Rain = 0
KTAS 150453Z 10007KT 27/16 A3015 RMK A01 T02730163  RH  051%=      5-min Rain = 0
KTAS 150454Z 09008KT 27/16 A3015 RMK A01 T02720163  RH  051%=      5-min Rain = 0
KTAS 150455Z 10007KT 27/16 A3015 RMK A01 T02720164  RH  051%=      5-min Rain = 0
KTAS 150456Z 10008KT 27/16 A3015 RMK A01 T02720164  RH  052%=      5-min Rain = 0
KTAS 150457Z 10009KT 27/16 A3015 RMK A01 T02720164  RH  052%=      5-min Rain = 0
KTAS 150458Z 10009KT 27/17 A3015 RMK A01 T02720165  RH  052%=      5-min Rain = 0
KTAS 150459Z 10009KT 27/17 A3015 RMK A01 T02730165  RH  052%=      5-min Rain = 0

Page generated in 0.1233 seconds.